<?xml version="1.0" encoding="UTF-8" standalone="no" ?>
<gpx xmlns="http://www.topografix.com/GPX/1/1" xmlns:xsi="http://www.w3.org/2001/XMLSchema-instance" xsi:schemaLocation="http://www.topografix.com/GPX/1/1 http://www.topografix.com/GPX/1/1/gpx.xsd" version="1.1" creator="VisuGPX - https://www.visugpx.com">
  <metadata>
    <name>Circuit VTT 31km</name>
  </metadata>
  <wpt lat="48.56179" lon="-3.08307">
    <ele>134.6</ele>
    <name><![CDATA[Ravitaillement]]></name>
    <desc><![CDATA[]]></desc>
  </wpt>
  <trk>
    <name><![CDATA[CircuitSt Agathon32kms-18156210]]></name>
    <trkseg>
      <trkpt lat="48.55771" lon="-3.10457">
        <ele>119</ele>
        <time>2024-06-03T16:21:12Z</time>
      </trkpt>
      <trkpt lat="48.55778" lon="-3.1044">
        <ele>119</ele>
        <time>2024-06-03T16:21:15Z</time>
      </trkpt>
      <trkpt lat="48.55809" lon="-3.10453">
        <ele>118</ele>
        <time>2024-06-03T16:21:23Z</time>
      </trkpt>
      <trkpt lat="48.55816" lon="-3.10365">
        <ele>119</ele>
        <time>2024-06-03T16:21:36Z</time>
      </trkpt>
      <trkpt lat="48.55841" lon="-3.10342">
        <ele>119</ele>
        <time>2024-06-03T16:21:43Z</time>
      </trkpt>
      <trkpt lat="48.55889" lon="-3.10332">
        <ele>118</ele>
        <time>2024-06-03T16:21:54Z</time>
      </trkpt>
      <trkpt lat="48.5592" lon="-3.10402">
        <ele>117</ele>
        <time>2024-06-03T16:22:07Z</time>
      </trkpt>
      <trkpt lat="48.55917" lon="-3.10441">
        <ele>116</ele>
        <time>2024-06-03T16:22:14Z</time>
      </trkpt>
      <trkpt lat="48.5594" lon="-3.10521">
        <ele>113</ele>
        <time>2024-06-03T16:22:27Z</time>
      </trkpt>
      <trkpt lat="48.55927" lon="-3.10561">
        <ele>113</ele>
        <time>2024-06-03T16:22:34Z</time>
      </trkpt>
      <trkpt lat="48.55951" lon="-3.10691">
        <ele>116</ele>
        <time>2024-06-03T16:22:55Z</time>
      </trkpt>
      <trkpt lat="48.55959" lon="-3.10722">
        <ele>117</ele>
        <time>2024-06-03T16:23:00Z</time>
      </trkpt>
      <trkpt lat="48.55969" lon="-3.10744">
        <ele>118</ele>
        <time>2024-06-03T16:23:04Z</time>
      </trkpt>
      <trkpt lat="48.55986" lon="-3.10767">
        <ele>118</ele>
        <time>2024-06-03T16:23:09Z</time>
      </trkpt>
      <trkpt lat="48.56001" lon="-3.10793">
        <ele>117</ele>
        <time>2024-06-03T16:23:15Z</time>
      </trkpt>
      <trkpt lat="48.56057" lon="-3.1103">
        <ele>121</ele>
        <time>2024-06-03T16:23:54Z</time>
      </trkpt>
      <trkpt lat="48.56157" lon="-3.11056">
        <ele>121</ele>
        <time>2024-06-03T16:24:17Z</time>
      </trkpt>
      <trkpt lat="48.56176" lon="-3.11022">
        <ele>120</ele>
        <time>2024-06-03T16:24:24Z</time>
      </trkpt>
      <trkpt lat="48.56192" lon="-3.10975">
        <ele>117</ele>
        <time>2024-06-03T16:24:32Z</time>
      </trkpt>
      <trkpt lat="48.56214" lon="-3.10952">
        <ele>114</ele>
        <time>2024-06-03T16:24:39Z</time>
      </trkpt>
      <trkpt lat="48.56238" lon="-3.1096">
        <ele>112</ele>
        <time>2024-06-03T16:24:44Z</time>
      </trkpt>
      <trkpt lat="48.56263" lon="-3.10994">
        <ele>111</ele>
        <time>2024-06-03T16:24:52Z</time>
      </trkpt>
      <trkpt lat="48.56285" lon="-3.11009">
        <ele>109</ele>
        <time>2024-06-03T16:24:58Z</time>
      </trkpt>
      <trkpt lat="48.56315" lon="-3.11036">
        <ele>107</ele>
        <time>2024-06-03T16:25:06Z</time>
      </trkpt>
      <trkpt lat="48.56337" lon="-3.11051">
        <ele>105</ele>
        <time>2024-06-03T16:25:12Z</time>
      </trkpt>
      <trkpt lat="48.56356" lon="-3.11051">
        <ele>104</ele>
        <time>2024-06-03T16:25:16Z</time>
      </trkpt>
      <trkpt lat="48.56373" lon="-3.11044">
        <ele>104</ele>
        <time>2024-06-03T16:25:20Z</time>
      </trkpt>
      <trkpt lat="48.56403" lon="-3.11039">
        <ele>102</ele>
        <time>2024-06-03T16:25:27Z</time>
      </trkpt>
      <trkpt lat="48.56446" lon="-3.11021">
        <ele>102</ele>
        <time>2024-06-03T16:25:38Z</time>
      </trkpt>
      <trkpt lat="48.56456" lon="-3.11005">
        <ele>102</ele>
        <time>2024-06-03T16:25:41Z</time>
      </trkpt>
      <trkpt lat="48.56461" lon="-3.1099">
        <ele>102</ele>
        <time>2024-06-03T16:25:44Z</time>
      </trkpt>
      <trkpt lat="48.56459" lon="-3.10974">
        <ele>103</ele>
        <time>2024-06-03T16:25:46Z</time>
      </trkpt>
      <trkpt lat="48.56451" lon="-3.10962">
        <ele>103</ele>
        <time>2024-06-03T16:25:49Z</time>
      </trkpt>
      <trkpt lat="48.56426" lon="-3.1094">
        <ele>103</ele>
        <time>2024-06-03T16:25:56Z</time>
      </trkpt>
      <trkpt lat="48.56418" lon="-3.1093">
        <ele>104</ele>
        <time>2024-06-03T16:25:58Z</time>
      </trkpt>
      <trkpt lat="48.56404" lon="-3.10931">
        <ele>104</ele>
        <time>2024-06-03T16:26:01Z</time>
      </trkpt>
      <trkpt lat="48.56394" lon="-3.10926">
        <ele>104</ele>
        <time>2024-06-03T16:26:04Z</time>
      </trkpt>
      <trkpt lat="48.56389" lon="-3.10912">
        <ele>104</ele>
        <time>2024-06-03T16:26:06Z</time>
      </trkpt>
      <trkpt lat="48.56386" lon="-3.10885">
        <ele>104</ele>
        <time>2024-06-03T16:26:10Z</time>
      </trkpt>
      <trkpt lat="48.56371" lon="-3.10866">
        <ele>104</ele>
        <time>2024-06-03T16:26:15Z</time>
      </trkpt>
      <trkpt lat="48.5635" lon="-3.10856">
        <ele>104</ele>
        <time>2024-06-03T16:26:20Z</time>
      </trkpt>
      <trkpt lat="48.5633" lon="-3.1086">
        <ele>104</ele>
        <time>2024-06-03T16:26:25Z</time>
      </trkpt>
      <trkpt lat="48.56316" lon="-3.10859">
        <ele>105</ele>
        <time>2024-06-03T16:26:28Z</time>
      </trkpt>
      <trkpt lat="48.56297" lon="-3.10854">
        <ele>106</ele>
        <time>2024-06-03T16:26:33Z</time>
      </trkpt>
      <trkpt lat="48.56286" lon="-3.10845">
        <ele>106</ele>
        <time>2024-06-03T16:26:36Z</time>
      </trkpt>
      <trkpt lat="48.56234" lon="-3.10775">
        <ele>107</ele>
        <time>2024-06-03T16:26:52Z</time>
      </trkpt>
      <trkpt lat="48.56202" lon="-3.10746">
        <ele>108</ele>
        <time>2024-06-03T16:27:00Z</time>
      </trkpt>
      <trkpt lat="48.56176" lon="-3.10671">
        <ele>107</ele>
        <time>2024-06-03T16:27:14Z</time>
      </trkpt>
      <trkpt lat="48.56134" lon="-3.10622">
        <ele>108</ele>
        <time>2024-06-03T16:27:26Z</time>
      </trkpt>
      <trkpt lat="48.56132" lon="-3.10574">
        <ele>108</ele>
        <time>2024-06-03T16:27:33Z</time>
      </trkpt>
      <trkpt lat="48.56124" lon="-3.10567">
        <ele>108</ele>
        <time>2024-06-03T16:27:36Z</time>
      </trkpt>
      <trkpt lat="48.56119" lon="-3.10516">
        <ele>109</ele>
        <time>2024-06-03T16:27:44Z</time>
      </trkpt>
      <trkpt lat="48.5599" lon="-3.10525">
        <ele>113</ele>
        <time>2024-06-03T16:28:14Z</time>
      </trkpt>
      <trkpt lat="48.55968" lon="-3.10499">
        <ele>113</ele>
        <time>2024-06-03T16:28:20Z</time>
      </trkpt>
      <trkpt lat="48.55992" lon="-3.1047">
        <ele>114</ele>
        <time>2024-06-03T16:28:27Z</time>
      </trkpt>
      <trkpt lat="48.56038" lon="-3.10444">
        <ele>111</ele>
        <time>2024-06-03T16:28:39Z</time>
      </trkpt>
      <trkpt lat="48.56115" lon="-3.10441">
        <ele>108</ele>
        <time>2024-06-03T16:28:57Z</time>
      </trkpt>
      <trkpt lat="48.56136" lon="-3.10434">
        <ele>109</ele>
        <time>2024-06-03T16:29:02Z</time>
      </trkpt>
      <trkpt lat="48.56158" lon="-3.10391">
        <ele>108</ele>
        <time>2024-06-03T16:29:10Z</time>
      </trkpt>
      <trkpt lat="48.56146" lon="-3.10343">
        <ele>108</ele>
        <time>2024-06-03T16:29:18Z</time>
      </trkpt>
      <trkpt lat="48.56136" lon="-3.10323">
        <ele>108</ele>
        <time>2024-06-03T16:29:22Z</time>
      </trkpt>
      <trkpt lat="48.56103" lon="-3.10279">
        <ele>109</ele>
        <time>2024-06-03T16:29:32Z</time>
      </trkpt>
      <trkpt lat="48.56083" lon="-3.10257">
        <ele>109</ele>
        <time>2024-06-03T16:29:38Z</time>
      </trkpt>
      <trkpt lat="48.56069" lon="-3.10231">
        <ele>111</ele>
        <time>2024-06-03T16:29:43Z</time>
      </trkpt>
      <trkpt lat="48.56048" lon="-3.10184">
        <ele>113</ele>
        <time>2024-06-03T16:29:52Z</time>
      </trkpt>
      <trkpt lat="48.5604" lon="-3.10159">
        <ele>113</ele>
        <time>2024-06-03T16:29:56Z</time>
      </trkpt>
      <trkpt lat="48.56025" lon="-3.10135">
        <ele>112</ele>
        <time>2024-06-03T16:30:01Z</time>
      </trkpt>
      <trkpt lat="48.56006" lon="-3.10089">
        <ele>111</ele>
        <time>2024-06-03T16:30:10Z</time>
      </trkpt>
      <trkpt lat="48.56003" lon="-3.10057">
        <ele>111</ele>
        <time>2024-06-03T16:30:15Z</time>
      </trkpt>
      <trkpt lat="48.56013" lon="-3.09991">
        <ele>115</ele>
        <time>2024-06-03T16:30:25Z</time>
      </trkpt>
      <trkpt lat="48.56012" lon="-3.09952">
        <ele>113</ele>
        <time>2024-06-03T16:30:31Z</time>
      </trkpt>
      <trkpt lat="48.56009" lon="-3.09931">
        <ele>112</ele>
        <time>2024-06-03T16:30:35Z</time>
      </trkpt>
      <trkpt lat="48.56003" lon="-3.09913">
        <ele>111</ele>
        <time>2024-06-03T16:30:38Z</time>
      </trkpt>
      <trkpt lat="48.55973" lon="-3.09865">
        <ele>110</ele>
        <time>2024-06-03T16:30:48Z</time>
      </trkpt>
      <trkpt lat="48.55953" lon="-3.0985">
        <ele>110</ele>
        <time>2024-06-03T16:30:53Z</time>
      </trkpt>
      <trkpt lat="48.55938" lon="-3.09829">
        <ele>110</ele>
        <time>2024-06-03T16:30:58Z</time>
      </trkpt>
      <trkpt lat="48.55944" lon="-3.09803">
        <ele>110</ele>
        <time>2024-06-03T16:31:02Z</time>
      </trkpt>
      <trkpt lat="48.56017" lon="-3.09632">
        <ele>113</ele>
        <time>2024-06-03T16:31:34Z</time>
      </trkpt>
      <trkpt lat="48.56027" lon="-3.09624">
        <ele>113</ele>
        <time>2024-06-03T16:31:36Z</time>
      </trkpt>
      <trkpt lat="48.56042" lon="-3.09626">
        <ele>114</ele>
        <time>2024-06-03T16:31:40Z</time>
      </trkpt>
      <trkpt lat="48.56056" lon="-3.09624">
        <ele>114</ele>
        <time>2024-06-03T16:31:43Z</time>
      </trkpt>
      <trkpt lat="48.56091" lon="-3.09629">
        <ele>115</ele>
        <time>2024-06-03T16:31:51Z</time>
      </trkpt>
      <trkpt lat="48.56111" lon="-3.09639">
        <ele>116</ele>
        <time>2024-06-03T16:31:56Z</time>
      </trkpt>
      <trkpt lat="48.56161" lon="-3.09671">
        <ele>119</ele>
        <time>2024-06-03T16:32:09Z</time>
      </trkpt>
      <trkpt lat="48.5621" lon="-3.09716">
        <ele>121</ele>
        <time>2024-06-03T16:32:22Z</time>
      </trkpt>
      <trkpt lat="48.56235" lon="-3.09747">
        <ele>122</ele>
        <time>2024-06-03T16:32:30Z</time>
      </trkpt>
      <trkpt lat="48.5627" lon="-3.09783">
        <ele>122</ele>
        <time>2024-06-03T16:32:40Z</time>
      </trkpt>
      <trkpt lat="48.56286" lon="-3.09795">
        <ele>123</ele>
        <time>2024-06-03T16:32:44Z</time>
      </trkpt>
      <trkpt lat="48.56321" lon="-3.09809">
        <ele>123</ele>
        <time>2024-06-03T16:32:52Z</time>
      </trkpt>
      <trkpt lat="48.56354" lon="-3.09811">
        <ele>124</ele>
        <time>2024-06-03T16:33:00Z</time>
      </trkpt>
      <trkpt lat="48.56367" lon="-3.09823">
        <ele>125</ele>
        <time>2024-06-03T16:33:04Z</time>
      </trkpt>
      <trkpt lat="48.56346" lon="-3.09867">
        <ele>124</ele>
        <time>2024-06-03T16:33:12Z</time>
      </trkpt>
      <trkpt lat="48.56307" lon="-3.09976">
        <ele>125</ele>
        <time>2024-06-03T16:33:31Z</time>
      </trkpt>
      <trkpt lat="48.563" lon="-3.10013">
        <ele>125</ele>
        <time>2024-06-03T16:33:37Z</time>
      </trkpt>
      <trkpt lat="48.56291" lon="-3.10084">
        <ele>126</ele>
        <time>2024-06-03T16:33:48Z</time>
      </trkpt>
      <trkpt lat="48.56283" lon="-3.10113">
        <ele>127</ele>
        <time>2024-06-03T16:33:53Z</time>
      </trkpt>
      <trkpt lat="48.56291" lon="-3.1013">
        <ele>128</ele>
        <time>2024-06-03T16:33:56Z</time>
      </trkpt>
      <trkpt lat="48.56322" lon="-3.10152">
        <ele>131</ele>
        <time>2024-06-03T16:34:04Z</time>
      </trkpt>
      <trkpt lat="48.56338" lon="-3.10161">
        <ele>132</ele>
        <time>2024-06-03T16:34:08Z</time>
      </trkpt>
      <trkpt lat="48.56383" lon="-3.10173">
        <ele>132</ele>
        <time>2024-06-03T16:34:19Z</time>
      </trkpt>
      <trkpt lat="48.56398" lon="-3.10181">
        <ele>132</ele>
        <time>2024-06-03T16:34:23Z</time>
      </trkpt>
      <trkpt lat="48.56418" lon="-3.10198">
        <ele>132</ele>
        <time>2024-06-03T16:34:28Z</time>
      </trkpt>
      <trkpt lat="48.56445" lon="-3.10234">
        <ele>129</ele>
        <time>2024-06-03T16:34:37Z</time>
      </trkpt>
      <trkpt lat="48.56457" lon="-3.10278">
        <ele>127</ele>
        <time>2024-06-03T16:34:44Z</time>
      </trkpt>
      <trkpt lat="48.5645" lon="-3.10316">
        <ele>125</ele>
        <time>2024-06-03T16:34:50Z</time>
      </trkpt>
      <trkpt lat="48.56437" lon="-3.10359">
        <ele>124</ele>
        <time>2024-06-03T16:34:57Z</time>
      </trkpt>
      <trkpt lat="48.56457" lon="-3.10396">
        <ele>122</ele>
        <time>2024-06-03T16:35:05Z</time>
      </trkpt>
      <trkpt lat="48.56507" lon="-3.10435">
        <ele>120</ele>
        <time>2024-06-03T16:35:18Z</time>
      </trkpt>
      <trkpt lat="48.56547" lon="-3.10451">
        <ele>120</ele>
        <time>2024-06-03T16:35:27Z</time>
      </trkpt>
      <trkpt lat="48.56577" lon="-3.10466">
        <ele>121</ele>
        <time>2024-06-03T16:35:35Z</time>
      </trkpt>
      <trkpt lat="48.56591" lon="-3.10469">
        <ele>121</ele>
        <time>2024-06-03T16:35:38Z</time>
      </trkpt>
      <trkpt lat="48.56606" lon="-3.10469">
        <ele>121</ele>
        <time>2024-06-03T16:35:42Z</time>
      </trkpt>
      <trkpt lat="48.56619" lon="-3.10473">
        <ele>121</ele>
        <time>2024-06-03T16:35:45Z</time>
      </trkpt>
      <trkpt lat="48.56675" lon="-3.10505">
        <ele>122</ele>
        <time>2024-06-03T16:35:59Z</time>
      </trkpt>
      <trkpt lat="48.56679" lon="-3.10527">
        <ele>121</ele>
        <time>2024-06-03T16:36:02Z</time>
      </trkpt>
      <trkpt lat="48.56672" lon="-3.10558">
        <ele>121</ele>
        <time>2024-06-03T16:36:07Z</time>
      </trkpt>
      <trkpt lat="48.56673" lon="-3.10596">
        <ele>120</ele>
        <time>2024-06-03T16:36:13Z</time>
      </trkpt>
      <trkpt lat="48.5667" lon="-3.10667">
        <ele>121</ele>
        <time>2024-06-03T16:36:24Z</time>
      </trkpt>
      <trkpt lat="48.56652" lon="-3.1074">
        <ele>118</ele>
        <time>2024-06-03T16:36:36Z</time>
      </trkpt>
      <trkpt lat="48.56632" lon="-3.10781">
        <ele>116</ele>
        <time>2024-06-03T16:36:44Z</time>
      </trkpt>
      <trkpt lat="48.56617" lon="-3.10829">
        <ele>113</ele>
        <time>2024-06-03T16:36:52Z</time>
      </trkpt>
      <trkpt lat="48.56619" lon="-3.10863">
        <ele>112</ele>
        <time>2024-06-03T16:36:58Z</time>
      </trkpt>
      <trkpt lat="48.56704" lon="-3.10885">
        <ele>116</ele>
        <time>2024-06-03T16:37:18Z</time>
      </trkpt>
      <trkpt lat="48.56736" lon="-3.10906">
        <ele>117</ele>
        <time>2024-06-03T16:37:26Z</time>
      </trkpt>
      <trkpt lat="48.56754" lon="-3.10914">
        <ele>118</ele>
        <time>2024-06-03T16:37:30Z</time>
      </trkpt>
      <trkpt lat="48.56773" lon="-3.10919">
        <ele>119</ele>
        <time>2024-06-03T16:37:35Z</time>
      </trkpt>
      <trkpt lat="48.56811" lon="-3.10916">
        <ele>120</ele>
        <time>2024-06-03T16:37:44Z</time>
      </trkpt>
      <trkpt lat="48.56832" lon="-3.10921">
        <ele>121</ele>
        <time>2024-06-03T16:37:49Z</time>
      </trkpt>
      <trkpt lat="48.56876" lon="-3.1095">
        <ele>120</ele>
        <time>2024-06-03T16:38:00Z</time>
      </trkpt>
      <trkpt lat="48.56929" lon="-3.10974">
        <ele>119</ele>
        <time>2024-06-03T16:38:13Z</time>
      </trkpt>
      <trkpt lat="48.56958" lon="-3.10985">
        <ele>118</ele>
        <time>2024-06-03T16:38:20Z</time>
      </trkpt>
      <trkpt lat="48.57044" lon="-3.11011">
        <ele>115</ele>
        <time>2024-06-03T16:38:40Z</time>
      </trkpt>
      <trkpt lat="48.5712" lon="-3.11051">
        <ele>114</ele>
        <time>2024-06-03T16:38:59Z</time>
      </trkpt>
      <trkpt lat="48.57154" lon="-3.1108">
        <ele>113</ele>
        <time>2024-06-03T16:39:08Z</time>
      </trkpt>
      <trkpt lat="48.57137" lon="-3.11119">
        <ele>114</ele>
        <time>2024-06-03T16:39:15Z</time>
      </trkpt>
      <trkpt lat="48.5711" lon="-3.11155">
        <ele>113</ele>
        <time>2024-06-03T16:39:24Z</time>
      </trkpt>
      <trkpt lat="48.57076" lon="-3.11272">
        <ele>110</ele>
        <time>2024-06-03T16:39:43Z</time>
      </trkpt>
      <trkpt lat="48.57074" lon="-3.11328">
        <ele>111</ele>
        <time>2024-06-03T16:39:52Z</time>
      </trkpt>
      <trkpt lat="48.57095" lon="-3.11409">
        <ele>109</ele>
        <time>2024-06-03T16:40:06Z</time>
      </trkpt>
      <trkpt lat="48.5712" lon="-3.11474">
        <ele>106</ele>
        <time>2024-06-03T16:40:17Z</time>
      </trkpt>
      <trkpt lat="48.5714" lon="-3.11508">
        <ele>105</ele>
        <time>2024-06-03T16:40:24Z</time>
      </trkpt>
      <trkpt lat="48.57161" lon="-3.11528">
        <ele>105</ele>
        <time>2024-06-03T16:40:30Z</time>
      </trkpt>
      <trkpt lat="48.57184" lon="-3.11557">
        <ele>104</ele>
        <time>2024-06-03T16:40:37Z</time>
      </trkpt>
      <trkpt lat="48.57183" lon="-3.11609">
        <ele>104</ele>
        <time>2024-06-03T16:40:45Z</time>
      </trkpt>
      <trkpt lat="48.57172" lon="-3.11617">
        <ele>104</ele>
        <time>2024-06-03T16:40:48Z</time>
      </trkpt>
      <trkpt lat="48.57165" lon="-3.11618">
        <ele>104</ele>
        <time>2024-06-03T16:40:50Z</time>
      </trkpt>
      <trkpt lat="48.57158" lon="-3.11626">
        <ele>105</ele>
        <time>2024-06-03T16:40:52Z</time>
      </trkpt>
      <trkpt lat="48.57151" lon="-3.11655">
        <ele>106</ele>
        <time>2024-06-03T16:40:56Z</time>
      </trkpt>
      <trkpt lat="48.57156" lon="-3.11669">
        <ele>107</ele>
        <time>2024-06-03T16:40:59Z</time>
      </trkpt>
      <trkpt lat="48.57162" lon="-3.11705">
        <ele>109</ele>
        <time>2024-06-03T16:41:05Z</time>
      </trkpt>
      <trkpt lat="48.57168" lon="-3.11774">
        <ele>111</ele>
        <time>2024-06-03T16:41:15Z</time>
      </trkpt>
      <trkpt lat="48.57158" lon="-3.11825">
        <ele>111</ele>
        <time>2024-06-03T16:41:24Z</time>
      </trkpt>
      <trkpt lat="48.57156" lon="-3.1185">
        <ele>111</ele>
        <time>2024-06-03T16:41:27Z</time>
      </trkpt>
      <trkpt lat="48.57143" lon="-3.11899">
        <ele>111</ele>
        <time>2024-06-03T16:41:36Z</time>
      </trkpt>
      <trkpt lat="48.57095" lon="-3.12028">
        <ele>116</ele>
        <time>2024-06-03T16:41:58Z</time>
      </trkpt>
      <trkpt lat="48.57087" lon="-3.12058">
        <ele>118</ele>
        <time>2024-06-03T16:42:03Z</time>
      </trkpt>
      <trkpt lat="48.57054" lon="-3.1214">
        <ele>121</ele>
        <time>2024-06-03T16:42:18Z</time>
      </trkpt>
      <trkpt lat="48.57045" lon="-3.12172">
        <ele>122</ele>
        <time>2024-06-03T16:42:24Z</time>
      </trkpt>
      <trkpt lat="48.57038" lon="-3.12188">
        <ele>122</ele>
        <time>2024-06-03T16:42:27Z</time>
      </trkpt>
      <trkpt lat="48.57037" lon="-3.12203">
        <ele>123</ele>
        <time>2024-06-03T16:42:29Z</time>
      </trkpt>
      <trkpt lat="48.57052" lon="-3.1231">
        <ele>124</ele>
        <time>2024-06-03T16:42:46Z</time>
      </trkpt>
      <trkpt lat="48.57078" lon="-3.12434">
        <ele>125</ele>
        <time>2024-06-03T16:43:06Z</time>
      </trkpt>
      <trkpt lat="48.57169" lon="-3.12045">
        <ele>114</ele>
        <time>2024-06-03T16:44:10Z</time>
      </trkpt>
      <trkpt lat="48.57222" lon="-3.11912">
        <ele>110</ele>
        <time>2024-06-03T16:44:34Z</time>
      </trkpt>
      <trkpt lat="48.57263" lon="-3.11845">
        <ele>104</ele>
        <time>2024-06-03T16:44:48Z</time>
      </trkpt>
      <trkpt lat="48.57288" lon="-3.11924">
        <ele>105</ele>
        <time>2024-06-03T16:45:01Z</time>
      </trkpt>
      <trkpt lat="48.57321" lon="-3.11991">
        <ele>104</ele>
        <time>2024-06-03T16:45:14Z</time>
      </trkpt>
      <trkpt lat="48.57391" lon="-3.1218">
        <ele>100</ele>
        <time>2024-06-03T16:45:48Z</time>
      </trkpt>
      <trkpt lat="48.5742" lon="-3.1222">
        <ele>99</ele>
        <time>2024-06-03T16:45:57Z</time>
      </trkpt>
      <trkpt lat="48.57452" lon="-3.12241">
        <ele>98</ele>
        <time>2024-06-03T16:46:05Z</time>
      </trkpt>
      <trkpt lat="48.57442" lon="-3.12302">
        <ele>101</ele>
        <time>2024-06-03T16:46:15Z</time>
      </trkpt>
      <trkpt lat="48.57483" lon="-3.12341">
        <ele>100</ele>
        <time>2024-06-03T16:46:26Z</time>
      </trkpt>
      <trkpt lat="48.57513" lon="-3.12375">
        <ele>101</ele>
        <time>2024-06-03T16:46:35Z</time>
      </trkpt>
      <trkpt lat="48.57524" lon="-3.12413">
        <ele>102</ele>
        <time>2024-06-03T16:46:41Z</time>
      </trkpt>
      <trkpt lat="48.57548" lon="-3.12349">
        <ele>98</ele>
        <time>2024-06-03T16:46:53Z</time>
      </trkpt>
      <trkpt lat="48.57568" lon="-3.12317">
        <ele>97</ele>
        <time>2024-06-03T16:46:59Z</time>
      </trkpt>
      <trkpt lat="48.57639" lon="-3.12296">
        <ele>93</ele>
        <time>2024-06-03T16:47:16Z</time>
      </trkpt>
      <trkpt lat="48.57663" lon="-3.12298">
        <ele>92</ele>
        <time>2024-06-03T16:47:22Z</time>
      </trkpt>
      <trkpt lat="48.5767" lon="-3.12286">
        <ele>92</ele>
        <time>2024-06-03T16:47:24Z</time>
      </trkpt>
      <trkpt lat="48.57735" lon="-3.12299">
        <ele>90</ele>
        <time>2024-06-03T16:47:40Z</time>
      </trkpt>
      <trkpt lat="48.57745" lon="-3.12292">
        <ele>91</ele>
        <time>2024-06-03T16:47:42Z</time>
      </trkpt>
      <trkpt lat="48.57772" lon="-3.123">
        <ele>91</ele>
        <time>2024-06-03T16:47:49Z</time>
      </trkpt>
      <trkpt lat="48.57779" lon="-3.12287">
        <ele>92</ele>
        <time>2024-06-03T16:47:51Z</time>
      </trkpt>
      <trkpt lat="48.57781" lon="-3.12275">
        <ele>94</ele>
        <time>2024-06-03T16:47:53Z</time>
      </trkpt>
      <trkpt lat="48.57779" lon="-3.12263">
        <ele>95</ele>
        <time>2024-06-03T16:47:55Z</time>
      </trkpt>
      <trkpt lat="48.57773" lon="-3.1226">
        <ele>95</ele>
        <time>2024-06-03T16:47:57Z</time>
      </trkpt>
      <trkpt lat="48.57767" lon="-3.12246">
        <ele>95</ele>
        <time>2024-06-03T16:47:59Z</time>
      </trkpt>
      <trkpt lat="48.57746" lon="-3.12237">
        <ele>95</ele>
        <time>2024-06-03T16:48:04Z</time>
      </trkpt>
      <trkpt lat="48.57688" lon="-3.1218">
        <ele>99</ele>
        <time>2024-06-03T16:48:20Z</time>
      </trkpt>
      <trkpt lat="48.57687" lon="-3.12168">
        <ele>100</ele>
        <time>2024-06-03T16:48:22Z</time>
      </trkpt>
      <trkpt lat="48.57698" lon="-3.12129">
        <ele>101</ele>
        <time>2024-06-03T16:48:29Z</time>
      </trkpt>
      <trkpt lat="48.57716" lon="-3.12095">
        <ele>102</ele>
        <time>2024-06-03T16:48:36Z</time>
      </trkpt>
      <trkpt lat="48.57721" lon="-3.1208">
        <ele>102</ele>
        <time>2024-06-03T16:48:38Z</time>
      </trkpt>
      <trkpt lat="48.57727" lon="-3.12047">
        <ele>104</ele>
        <time>2024-06-03T16:48:43Z</time>
      </trkpt>
      <trkpt lat="48.57742" lon="-3.12009">
        <ele>105</ele>
        <time>2024-06-03T16:48:50Z</time>
      </trkpt>
      <trkpt lat="48.57762" lon="-3.11971">
        <ele>107</ele>
        <time>2024-06-03T16:48:58Z</time>
      </trkpt>
      <trkpt lat="48.57785" lon="-3.1194">
        <ele>107</ele>
        <time>2024-06-03T16:49:05Z</time>
      </trkpt>
      <trkpt lat="48.57842" lon="-3.11889">
        <ele>106</ele>
        <time>2024-06-03T16:49:20Z</time>
      </trkpt>
      <trkpt lat="48.57857" lon="-3.11877">
        <ele>106</ele>
        <time>2024-06-03T16:49:24Z</time>
      </trkpt>
      <trkpt lat="48.57878" lon="-3.11873">
        <ele>106</ele>
        <time>2024-06-03T16:49:29Z</time>
      </trkpt>
      <trkpt lat="48.57898" lon="-3.11883">
        <ele>105</ele>
        <time>2024-06-03T16:49:34Z</time>
      </trkpt>
      <trkpt lat="48.579" lon="-3.11886">
        <ele>104</ele>
        <time>2024-06-03T16:49:35Z</time>
      </trkpt>
      <trkpt lat="48.57902" lon="-3.11884">
        <ele>104</ele>
        <time>2024-06-03T16:49:35Z</time>
      </trkpt>
      <trkpt lat="48.57904" lon="-3.11886">
        <ele>104</ele>
        <time>2024-06-03T16:49:36Z</time>
      </trkpt>
      <trkpt lat="48.57928" lon="-3.1193">
        <ele>102</ele>
        <time>2024-06-03T16:49:45Z</time>
      </trkpt>
      <trkpt lat="48.5795" lon="-3.11949">
        <ele>101</ele>
        <time>2024-06-03T16:49:51Z</time>
      </trkpt>
      <trkpt lat="48.58006" lon="-3.1197">
        <ele>100</ele>
        <time>2024-06-03T16:50:04Z</time>
      </trkpt>
      <trkpt lat="48.58061" lon="-3.12005">
        <ele>100</ele>
        <time>2024-06-03T16:50:18Z</time>
      </trkpt>
      <trkpt lat="48.58076" lon="-3.12007">
        <ele>100</ele>
        <time>2024-06-03T16:50:22Z</time>
      </trkpt>
      <trkpt lat="48.58103" lon="-3.11988">
        <ele>100</ele>
        <time>2024-06-03T16:50:29Z</time>
      </trkpt>
      <trkpt lat="48.5814" lon="-3.11993">
        <ele>100</ele>
        <time>2024-06-03T16:50:37Z</time>
      </trkpt>
      <trkpt lat="48.58148" lon="-3.1199">
        <ele>100</ele>
        <time>2024-06-03T16:50:39Z</time>
      </trkpt>
      <trkpt lat="48.58154" lon="-3.11993">
        <ele>100</ele>
        <time>2024-06-03T16:50:41Z</time>
      </trkpt>
      <trkpt lat="48.58167" lon="-3.11993">
        <ele>100</ele>
        <time>2024-06-03T16:50:44Z</time>
      </trkpt>
      <trkpt lat="48.58199" lon="-3.12003">
        <ele>99</ele>
        <time>2024-06-03T16:50:51Z</time>
      </trkpt>
      <trkpt lat="48.58211" lon="-3.12019">
        <ele>99</ele>
        <time>2024-06-03T16:50:55Z</time>
      </trkpt>
      <trkpt lat="48.58213" lon="-3.12059">
        <ele>100</ele>
        <time>2024-06-03T16:51:01Z</time>
      </trkpt>
      <trkpt lat="48.58208" lon="-3.12073">
        <ele>100</ele>
        <time>2024-06-03T16:51:04Z</time>
      </trkpt>
      <trkpt lat="48.582" lon="-3.12083">
        <ele>100</ele>
        <time>2024-06-03T16:51:06Z</time>
      </trkpt>
      <trkpt lat="48.58141" lon="-3.12182">
        <ele>100</ele>
        <time>2024-06-03T16:51:27Z</time>
      </trkpt>
      <trkpt lat="48.58137" lon="-3.12195">
        <ele>100</ele>
        <time>2024-06-03T16:51:29Z</time>
      </trkpt>
      <trkpt lat="48.58136" lon="-3.1221">
        <ele>100</ele>
        <time>2024-06-03T16:51:31Z</time>
      </trkpt>
      <trkpt lat="48.58124" lon="-3.12223">
        <ele>99</ele>
        <time>2024-06-03T16:51:35Z</time>
      </trkpt>
      <trkpt lat="48.58101" lon="-3.12222">
        <ele>99</ele>
        <time>2024-06-03T16:51:40Z</time>
      </trkpt>
      <trkpt lat="48.58092" lon="-3.12239">
        <ele>98</ele>
        <time>2024-06-03T16:51:44Z</time>
      </trkpt>
      <trkpt lat="48.58062" lon="-3.12329">
        <ele>94</ele>
        <time>2024-06-03T16:51:59Z</time>
      </trkpt>
      <trkpt lat="48.58033" lon="-3.12399">
        <ele>90</ele>
        <time>2024-06-03T16:52:12Z</time>
      </trkpt>
      <trkpt lat="48.58001" lon="-3.12441">
        <ele>87</ele>
        <time>2024-06-03T16:52:22Z</time>
      </trkpt>
      <trkpt lat="48.57969" lon="-3.12461">
        <ele>87</ele>
        <time>2024-06-03T16:52:30Z</time>
      </trkpt>
      <trkpt lat="48.57946" lon="-3.12458">
        <ele>88</ele>
        <time>2024-06-03T16:52:35Z</time>
      </trkpt>
      <trkpt lat="48.57927" lon="-3.1246">
        <ele>89</ele>
        <time>2024-06-03T16:52:40Z</time>
      </trkpt>
      <trkpt lat="48.57917" lon="-3.12486">
        <ele>88</ele>
        <time>2024-06-03T16:52:44Z</time>
      </trkpt>
      <trkpt lat="48.57902" lon="-3.12511">
        <ele>90</ele>
        <time>2024-06-03T16:52:50Z</time>
      </trkpt>
      <trkpt lat="48.57892" lon="-3.12543">
        <ele>93</ele>
        <time>2024-06-03T16:52:55Z</time>
      </trkpt>
      <trkpt lat="48.57894" lon="-3.12549">
        <ele>94</ele>
        <time>2024-06-03T16:52:56Z</time>
      </trkpt>
      <trkpt lat="48.57914" lon="-3.1257">
        <ele>97</ele>
        <time>2024-06-03T16:53:02Z</time>
      </trkpt>
      <trkpt lat="48.57947" lon="-3.12584">
        <ele>98</ele>
        <time>2024-06-03T16:53:10Z</time>
      </trkpt>
      <trkpt lat="48.57957" lon="-3.12592">
        <ele>98</ele>
        <time>2024-06-03T16:53:12Z</time>
      </trkpt>
      <trkpt lat="48.57991" lon="-3.12608">
        <ele>100</ele>
        <time>2024-06-03T16:53:21Z</time>
      </trkpt>
      <trkpt lat="48.58001" lon="-3.12619">
        <ele>102</ele>
        <time>2024-06-03T16:53:24Z</time>
      </trkpt>
      <trkpt lat="48.58072" lon="-3.12651">
        <ele>105</ele>
        <time>2024-06-03T16:53:41Z</time>
      </trkpt>
      <trkpt lat="48.58088" lon="-3.12652">
        <ele>104</ele>
        <time>2024-06-03T16:53:45Z</time>
      </trkpt>
      <trkpt lat="48.58137" lon="-3.12672">
        <ele>105</ele>
        <time>2024-06-03T16:53:56Z</time>
      </trkpt>
      <trkpt lat="48.58147" lon="-3.12679">
        <ele>106</ele>
        <time>2024-06-03T16:53:59Z</time>
      </trkpt>
      <trkpt lat="48.58161" lon="-3.12676">
        <ele>105</ele>
        <time>2024-06-03T16:54:02Z</time>
      </trkpt>
      <trkpt lat="48.58176" lon="-3.12663">
        <ele>103</ele>
        <time>2024-06-03T16:54:06Z</time>
      </trkpt>
      <trkpt lat="48.58188" lon="-3.12644">
        <ele>102</ele>
        <time>2024-06-03T16:54:10Z</time>
      </trkpt>
      <trkpt lat="48.58191" lon="-3.12629">
        <ele>101</ele>
        <time>2024-06-03T16:54:13Z</time>
      </trkpt>
      <trkpt lat="48.5816" lon="-3.12572">
        <ele>95</ele>
        <time>2024-06-03T16:54:24Z</time>
      </trkpt>
      <trkpt lat="48.58171" lon="-3.12533">
        <ele>93</ele>
        <time>2024-06-03T16:54:31Z</time>
      </trkpt>
      <trkpt lat="48.582" lon="-3.125">
        <ele>93</ele>
        <time>2024-06-03T16:54:39Z</time>
      </trkpt>
      <trkpt lat="48.58263" lon="-3.12447">
        <ele>91</ele>
        <time>2024-06-03T16:54:56Z</time>
      </trkpt>
      <trkpt lat="48.58277" lon="-3.12428">
        <ele>89</ele>
        <time>2024-06-03T16:55:01Z</time>
      </trkpt>
      <trkpt lat="48.58284" lon="-3.12411">
        <ele>89</ele>
        <time>2024-06-03T16:55:04Z</time>
      </trkpt>
      <trkpt lat="48.58294" lon="-3.12396">
        <ele>90</ele>
        <time>2024-06-03T16:55:07Z</time>
      </trkpt>
      <trkpt lat="48.58314" lon="-3.12318">
        <ele>95</ele>
        <time>2024-06-03T16:55:20Z</time>
      </trkpt>
      <trkpt lat="48.58322" lon="-3.12307">
        <ele>95</ele>
        <time>2024-06-03T16:55:22Z</time>
      </trkpt>
      <trkpt lat="48.58346" lon="-3.12283">
        <ele>96</ele>
        <time>2024-06-03T16:55:29Z</time>
      </trkpt>
      <trkpt lat="48.58363" lon="-3.12271">
        <ele>97</ele>
        <time>2024-06-03T16:55:33Z</time>
      </trkpt>
      <trkpt lat="48.58373" lon="-3.12267">
        <ele>98</ele>
        <time>2024-06-03T16:55:36Z</time>
      </trkpt>
      <trkpt lat="48.58371" lon="-3.12269">
        <ele>98</ele>
        <time>2024-06-03T16:55:36Z</time>
      </trkpt>
      <trkpt lat="48.58388" lon="-3.12247">
        <ele>98</ele>
        <time>2024-06-03T16:55:42Z</time>
      </trkpt>
      <trkpt lat="48.58396" lon="-3.12228">
        <ele>98</ele>
        <time>2024-06-03T16:55:45Z</time>
      </trkpt>
      <trkpt lat="48.58399" lon="-3.12226">
        <ele>98</ele>
        <time>2024-06-03T16:55:46Z</time>
      </trkpt>
      <trkpt lat="48.58434" lon="-3.12251">
        <ele>101</ele>
        <time>2024-06-03T16:55:55Z</time>
      </trkpt>
      <trkpt lat="48.58454" lon="-3.12262">
        <ele>103</ele>
        <time>2024-06-03T16:56:00Z</time>
      </trkpt>
      <trkpt lat="48.58468" lon="-3.1226">
        <ele>104</ele>
        <time>2024-06-03T16:56:03Z</time>
      </trkpt>
      <trkpt lat="48.58476" lon="-3.12255">
        <ele>104</ele>
        <time>2024-06-03T16:56:05Z</time>
      </trkpt>
      <trkpt lat="48.5849" lon="-3.12239">
        <ele>105</ele>
        <time>2024-06-03T16:56:09Z</time>
      </trkpt>
      <trkpt lat="48.58502" lon="-3.12215">
        <ele>107</ele>
        <time>2024-06-03T16:56:14Z</time>
      </trkpt>
      <trkpt lat="48.58541" lon="-3.12159">
        <ele>111</ele>
        <time>2024-06-03T16:56:27Z</time>
      </trkpt>
      <trkpt lat="48.58552" lon="-3.12129">
        <ele>113</ele>
        <time>2024-06-03T16:56:32Z</time>
      </trkpt>
      <trkpt lat="48.58556" lon="-3.1211">
        <ele>114</ele>
        <time>2024-06-03T16:56:35Z</time>
      </trkpt>
      <trkpt lat="48.58556" lon="-3.12058">
        <ele>114</ele>
        <time>2024-06-03T16:56:43Z</time>
      </trkpt>
      <trkpt lat="48.58536" lon="-3.11955">
        <ele>113</ele>
        <time>2024-06-03T16:57:00Z</time>
      </trkpt>
      <trkpt lat="48.58536" lon="-3.1193">
        <ele>114</ele>
        <time>2024-06-03T16:57:03Z</time>
      </trkpt>
      <trkpt lat="48.58541" lon="-3.11914">
        <ele>115</ele>
        <time>2024-06-03T16:57:06Z</time>
      </trkpt>
      <trkpt lat="48.58563" lon="-3.11879">
        <ele>118</ele>
        <time>2024-06-03T16:57:14Z</time>
      </trkpt>
      <trkpt lat="48.58593" lon="-3.11854">
        <ele>120</ele>
        <time>2024-06-03T16:57:22Z</time>
      </trkpt>
      <trkpt lat="48.58601" lon="-3.11851">
        <ele>120</ele>
        <time>2024-06-03T16:57:23Z</time>
      </trkpt>
      <trkpt lat="48.58601" lon="-3.11853">
        <ele>120</ele>
        <time>2024-06-03T16:57:24Z</time>
      </trkpt>
      <trkpt lat="48.58603" lon="-3.11851">
        <ele>120</ele>
        <time>2024-06-03T16:57:24Z</time>
      </trkpt>
      <trkpt lat="48.58607" lon="-3.11852">
        <ele>120</ele>
        <time>2024-06-03T16:57:25Z</time>
      </trkpt>
      <trkpt lat="48.58612" lon="-3.11843">
        <ele>120</ele>
        <time>2024-06-03T16:57:27Z</time>
      </trkpt>
      <trkpt lat="48.58648" lon="-3.11745">
        <ele>119</ele>
        <time>2024-06-03T16:57:44Z</time>
      </trkpt>
      <trkpt lat="48.58643" lon="-3.11729">
        <ele>119</ele>
        <time>2024-06-03T16:57:47Z</time>
      </trkpt>
      <trkpt lat="48.58631" lon="-3.11724">
        <ele>119</ele>
        <time>2024-06-03T16:57:50Z</time>
      </trkpt>
      <trkpt lat="48.5859" lon="-3.11734">
        <ele>118</ele>
        <time>2024-06-03T16:58:00Z</time>
      </trkpt>
      <trkpt lat="48.58566" lon="-3.11745">
        <ele>118</ele>
        <time>2024-06-03T16:58:06Z</time>
      </trkpt>
      <trkpt lat="48.58534" lon="-3.11755">
        <ele>117</ele>
        <time>2024-06-03T16:58:13Z</time>
      </trkpt>
      <trkpt lat="48.58508" lon="-3.11754">
        <ele>116</ele>
        <time>2024-06-03T16:58:19Z</time>
      </trkpt>
      <trkpt lat="48.58452" lon="-3.11731">
        <ele>115</ele>
        <time>2024-06-03T16:58:33Z</time>
      </trkpt>
      <trkpt lat="48.58435" lon="-3.11698">
        <ele>116</ele>
        <time>2024-06-03T16:58:39Z</time>
      </trkpt>
      <trkpt lat="48.58428" lon="-3.11665">
        <ele>117</ele>
        <time>2024-06-03T16:58:45Z</time>
      </trkpt>
      <trkpt lat="48.58422" lon="-3.11595">
        <ele>117</ele>
        <time>2024-06-03T16:58:56Z</time>
      </trkpt>
      <trkpt lat="48.58424" lon="-3.11529">
        <ele>116</ele>
        <time>2024-06-03T16:59:06Z</time>
      </trkpt>
      <trkpt lat="48.58428" lon="-3.11496">
        <ele>116</ele>
        <time>2024-06-03T16:59:11Z</time>
      </trkpt>
      <trkpt lat="48.58438" lon="-3.1145">
        <ele>116</ele>
        <time>2024-06-03T16:59:18Z</time>
      </trkpt>
      <trkpt lat="48.58434" lon="-3.11401">
        <ele>115</ele>
        <time>2024-06-03T16:59:26Z</time>
      </trkpt>
      <trkpt lat="48.58423" lon="-3.1137">
        <ele>115</ele>
        <time>2024-06-03T16:59:32Z</time>
      </trkpt>
      <trkpt lat="48.58371" lon="-3.11266">
        <ele>114</ele>
        <time>2024-06-03T16:59:52Z</time>
      </trkpt>
      <trkpt lat="48.58339" lon="-3.11184">
        <ele>114</ele>
        <time>2024-06-03T17:00:06Z</time>
      </trkpt>
      <trkpt lat="48.58318" lon="-3.11156">
        <ele>114</ele>
        <time>2024-06-03T17:00:13Z</time>
      </trkpt>
      <trkpt lat="48.58292" lon="-3.11129">
        <ele>115</ele>
        <time>2024-06-03T17:00:20Z</time>
      </trkpt>
      <trkpt lat="48.58265" lon="-3.11116">
        <ele>116</ele>
        <time>2024-06-03T17:00:27Z</time>
      </trkpt>
      <trkpt lat="48.58239" lon="-3.11109">
        <ele>116</ele>
        <time>2024-06-03T17:00:33Z</time>
      </trkpt>
      <trkpt lat="48.58203" lon="-3.11089">
        <ele>118</ele>
        <time>2024-06-03T17:00:42Z</time>
      </trkpt>
      <trkpt lat="48.58186" lon="-3.11065">
        <ele>119</ele>
        <time>2024-06-03T17:00:47Z</time>
      </trkpt>
      <trkpt lat="48.58172" lon="-3.11035">
        <ele>119</ele>
        <time>2024-06-03T17:00:53Z</time>
      </trkpt>
      <trkpt lat="48.58141" lon="-3.10983">
        <ele>119</ele>
        <time>2024-06-03T17:01:04Z</time>
      </trkpt>
      <trkpt lat="48.58118" lon="-3.1097">
        <ele>121</ele>
        <time>2024-06-03T17:01:10Z</time>
      </trkpt>
      <trkpt lat="48.58083" lon="-3.10965">
        <ele>123</ele>
        <time>2024-06-03T17:01:18Z</time>
      </trkpt>
      <trkpt lat="48.58062" lon="-3.10953">
        <ele>121</ele>
        <time>2024-06-03T17:01:23Z</time>
      </trkpt>
      <trkpt lat="48.58036" lon="-3.10924">
        <ele>119</ele>
        <time>2024-06-03T17:01:31Z</time>
      </trkpt>
      <trkpt lat="48.58029" lon="-3.10922">
        <ele>119</ele>
        <time>2024-06-03T17:01:32Z</time>
      </trkpt>
      <trkpt lat="48.58017" lon="-3.10912">
        <ele>119</ele>
        <time>2024-06-03T17:01:36Z</time>
      </trkpt>
      <trkpt lat="48.58001" lon="-3.10915">
        <ele>118</ele>
        <time>2024-06-03T17:01:39Z</time>
      </trkpt>
      <trkpt lat="48.57985" lon="-3.10937">
        <ele>118</ele>
        <time>2024-06-03T17:01:44Z</time>
      </trkpt>
      <trkpt lat="48.57965" lon="-3.10986">
        <ele>118</ele>
        <time>2024-06-03T17:01:53Z</time>
      </trkpt>
      <trkpt lat="48.57945" lon="-3.11009">
        <ele>117</ele>
        <time>2024-06-03T17:01:59Z</time>
      </trkpt>
      <trkpt lat="48.57927" lon="-3.11024">
        <ele>117</ele>
        <time>2024-06-03T17:02:04Z</time>
      </trkpt>
      <trkpt lat="48.57911" lon="-3.11025">
        <ele>117</ele>
        <time>2024-06-03T17:02:08Z</time>
      </trkpt>
      <trkpt lat="48.579" lon="-3.10999">
        <ele>117</ele>
        <time>2024-06-03T17:02:12Z</time>
      </trkpt>
      <trkpt lat="48.57878" lon="-3.10921">
        <ele>118</ele>
        <time>2024-06-03T17:02:26Z</time>
      </trkpt>
      <trkpt lat="48.57872" lon="-3.10892">
        <ele>119</ele>
        <time>2024-06-03T17:02:30Z</time>
      </trkpt>
      <trkpt lat="48.57866" lon="-3.10837">
        <ele>121</ele>
        <time>2024-06-03T17:02:39Z</time>
      </trkpt>
      <trkpt lat="48.57871" lon="-3.10809">
        <ele>121</ele>
        <time>2024-06-03T17:02:43Z</time>
      </trkpt>
      <trkpt lat="48.57874" lon="-3.10769">
        <ele>121</ele>
        <time>2024-06-03T17:02:50Z</time>
      </trkpt>
      <trkpt lat="48.57872" lon="-3.10742">
        <ele>122</ele>
        <time>2024-06-03T17:02:54Z</time>
      </trkpt>
      <trkpt lat="48.57859" lon="-3.10707">
        <ele>122</ele>
        <time>2024-06-03T17:03:00Z</time>
      </trkpt>
      <trkpt lat="48.57841" lon="-3.10678">
        <ele>121</ele>
        <time>2024-06-03T17:03:06Z</time>
      </trkpt>
      <trkpt lat="48.57797" lon="-3.10618">
        <ele>121</ele>
        <time>2024-06-03T17:03:20Z</time>
      </trkpt>
      <trkpt lat="48.57761" lon="-3.10581">
        <ele>122</ele>
        <time>2024-06-03T17:03:30Z</time>
      </trkpt>
      <trkpt lat="48.57661" lon="-3.10511">
        <ele>122</ele>
        <time>2024-06-03T17:03:56Z</time>
      </trkpt>
      <trkpt lat="48.57642" lon="-3.1049">
        <ele>122</ele>
        <time>2024-06-03T17:04:01Z</time>
      </trkpt>
      <trkpt lat="48.57621" lon="-3.10478">
        <ele>121</ele>
        <time>2024-06-03T17:04:07Z</time>
      </trkpt>
      <trkpt lat="48.57498" lon="-3.10425">
        <ele>122</ele>
        <time>2024-06-03T17:04:36Z</time>
      </trkpt>
      <trkpt lat="48.57491" lon="-3.10406">
        <ele>122</ele>
        <time>2024-06-03T17:04:40Z</time>
      </trkpt>
      <trkpt lat="48.57477" lon="-3.1028">
        <ele>124</ele>
        <time>2024-06-03T17:05:00Z</time>
      </trkpt>
      <trkpt lat="48.57481" lon="-3.10241">
        <ele>125</ele>
        <time>2024-06-03T17:05:06Z</time>
      </trkpt>
      <trkpt lat="48.57497" lon="-3.10167">
        <ele>125</ele>
        <time>2024-06-03T17:05:18Z</time>
      </trkpt>
      <trkpt lat="48.57502" lon="-3.10128">
        <ele>124</ele>
        <time>2024-06-03T17:05:24Z</time>
      </trkpt>
      <trkpt lat="48.57564" lon="-3.09887">
        <ele>122</ele>
        <time>2024-06-03T17:06:04Z</time>
      </trkpt>
      <trkpt lat="48.57575" lon="-3.09785">
        <ele>121</ele>
        <time>2024-06-03T17:06:20Z</time>
      </trkpt>
      <trkpt lat="48.57595" lon="-3.09679">
        <ele>121</ele>
        <time>2024-06-03T17:06:37Z</time>
      </trkpt>
      <trkpt lat="48.57601" lon="-3.09634">
        <ele>121</ele>
        <time>2024-06-03T17:06:44Z</time>
      </trkpt>
      <trkpt lat="48.57599" lon="-3.09597">
        <ele>121</ele>
        <time>2024-06-03T17:06:50Z</time>
      </trkpt>
      <trkpt lat="48.5755" lon="-3.09587">
        <ele>122</ele>
        <time>2024-06-03T17:07:01Z</time>
      </trkpt>
      <trkpt lat="48.57479" lon="-3.09568">
        <ele>124</ele>
        <time>2024-06-03T17:07:18Z</time>
      </trkpt>
      <trkpt lat="48.57389" lon="-3.09529">
        <ele>125</ele>
        <time>2024-06-03T17:07:40Z</time>
      </trkpt>
      <trkpt lat="48.57274" lon="-3.09474">
        <ele>127</ele>
        <time>2024-06-03T17:08:08Z</time>
      </trkpt>
      <trkpt lat="48.57259" lon="-3.09452">
        <ele>127</ele>
        <time>2024-06-03T17:08:13Z</time>
      </trkpt>
      <trkpt lat="48.57244" lon="-3.09424">
        <ele>127</ele>
        <time>2024-06-03T17:08:18Z</time>
      </trkpt>
      <trkpt lat="48.57211" lon="-3.09378">
        <ele>128</ele>
        <time>2024-06-03T17:08:29Z</time>
      </trkpt>
      <trkpt lat="48.57197" lon="-3.09363">
        <ele>129</ele>
        <time>2024-06-03T17:08:33Z</time>
      </trkpt>
      <trkpt lat="48.57184" lon="-3.09362">
        <ele>129</ele>
        <time>2024-06-03T17:08:36Z</time>
      </trkpt>
      <trkpt lat="48.57145" lon="-3.0937">
        <ele>130</ele>
        <time>2024-06-03T17:08:45Z</time>
      </trkpt>
      <trkpt lat="48.57121" lon="-3.09382">
        <ele>130</ele>
        <time>2024-06-03T17:08:51Z</time>
      </trkpt>
      <trkpt lat="48.57102" lon="-3.09401">
        <ele>130</ele>
        <time>2024-06-03T17:08:56Z</time>
      </trkpt>
      <trkpt lat="48.57084" lon="-3.09425">
        <ele>130</ele>
        <time>2024-06-03T17:09:02Z</time>
      </trkpt>
      <trkpt lat="48.57067" lon="-3.09441">
        <ele>130</ele>
        <time>2024-06-03T17:09:07Z</time>
      </trkpt>
      <trkpt lat="48.57047" lon="-3.09429">
        <ele>130</ele>
        <time>2024-06-03T17:09:12Z</time>
      </trkpt>
      <trkpt lat="48.57026" lon="-3.09412">
        <ele>131</ele>
        <time>2024-06-03T17:09:17Z</time>
      </trkpt>
      <trkpt lat="48.5696" lon="-3.09374">
        <ele>130</ele>
        <time>2024-06-03T17:09:34Z</time>
      </trkpt>
      <trkpt lat="48.56946" lon="-3.09402">
        <ele>130</ele>
        <time>2024-06-03T17:09:39Z</time>
      </trkpt>
      <trkpt lat="48.56932" lon="-3.09464">
        <ele>131</ele>
        <time>2024-06-03T17:09:49Z</time>
      </trkpt>
      <trkpt lat="48.56902" lon="-3.09628">
        <ele>133</ele>
        <time>2024-06-03T17:10:16Z</time>
      </trkpt>
      <trkpt lat="48.56864" lon="-3.09613">
        <ele>133</ele>
        <time>2024-06-03T17:10:25Z</time>
      </trkpt>
      <trkpt lat="48.56852" lon="-3.09599">
        <ele>133</ele>
        <time>2024-06-03T17:10:28Z</time>
      </trkpt>
      <trkpt lat="48.56834" lon="-3.09586">
        <ele>133</ele>
        <time>2024-06-03T17:10:33Z</time>
      </trkpt>
      <trkpt lat="48.56814" lon="-3.09566">
        <ele>133</ele>
        <time>2024-06-03T17:10:39Z</time>
      </trkpt>
      <trkpt lat="48.56776" lon="-3.09508">
        <ele>133</ele>
        <time>2024-06-03T17:10:51Z</time>
      </trkpt>
      <trkpt lat="48.56688" lon="-3.0939">
        <ele>132</ele>
        <time>2024-06-03T17:11:19Z</time>
      </trkpt>
      <trkpt lat="48.56661" lon="-3.09357">
        <ele>132</ele>
        <time>2024-06-03T17:11:27Z</time>
      </trkpt>
      <trkpt lat="48.56578" lon="-3.09269">
        <ele>131</ele>
        <time>2024-06-03T17:11:50Z</time>
      </trkpt>
      <trkpt lat="48.56559" lon="-3.09238">
        <ele>131</ele>
        <time>2024-06-03T17:11:57Z</time>
      </trkpt>
      <trkpt lat="48.56544" lon="-3.09191">
        <ele>131</ele>
        <time>2024-06-03T17:12:05Z</time>
      </trkpt>
      <trkpt lat="48.56526" lon="-3.09157">
        <ele>132</ele>
        <time>2024-06-03T17:12:12Z</time>
      </trkpt>
      <trkpt lat="48.56475" lon="-3.09124">
        <ele>132</ele>
        <time>2024-06-03T17:12:25Z</time>
      </trkpt>
      <trkpt lat="48.56448" lon="-3.09103">
        <ele>132</ele>
        <time>2024-06-03T17:12:32Z</time>
      </trkpt>
      <trkpt lat="48.56405" lon="-3.09048">
        <ele>133</ele>
        <time>2024-06-03T17:12:45Z</time>
      </trkpt>
      <trkpt lat="48.56338" lon="-3.08946">
        <ele>131</ele>
        <time>2024-06-03T17:13:07Z</time>
      </trkpt>
      <trkpt lat="48.56372" lon="-3.08909">
        <ele>131</ele>
        <time>2024-06-03T17:13:17Z</time>
      </trkpt>
      <trkpt lat="48.5641" lon="-3.08873">
        <ele>131</ele>
        <time>2024-06-03T17:13:27Z</time>
      </trkpt>
      <trkpt lat="48.56439" lon="-3.08848">
        <ele>131</ele>
        <time>2024-06-03T17:13:35Z</time>
      </trkpt>
      <trkpt lat="48.5646" lon="-3.08835">
        <ele>132</ele>
        <time>2024-06-03T17:13:41Z</time>
      </trkpt>
      <trkpt lat="48.56482" lon="-3.08813">
        <ele>132</ele>
        <time>2024-06-03T17:13:47Z</time>
      </trkpt>
      <trkpt lat="48.56518" lon="-3.08784">
        <ele>132</ele>
        <time>2024-06-03T17:13:56Z</time>
      </trkpt>
      <trkpt lat="48.5656" lon="-3.0874">
        <ele>131</ele>
        <time>2024-06-03T17:14:08Z</time>
      </trkpt>
      <trkpt lat="48.56603" lon="-3.087">
        <ele>130</ele>
        <time>2024-06-03T17:14:20Z</time>
      </trkpt>
      <trkpt lat="48.5665" lon="-3.08666">
        <ele>130</ele>
        <time>2024-06-03T17:14:32Z</time>
      </trkpt>
      <trkpt lat="48.56678" lon="-3.08654">
        <ele>130</ele>
        <time>2024-06-03T17:14:39Z</time>
      </trkpt>
      <trkpt lat="48.56714" lon="-3.08646">
        <ele>128</ele>
        <time>2024-06-03T17:14:47Z</time>
      </trkpt>
      <trkpt lat="48.56888" lon="-3.0863">
        <ele>128</ele>
        <time>2024-06-03T17:15:28Z</time>
      </trkpt>
      <trkpt lat="48.56898" lon="-3.08618">
        <ele>128</ele>
        <time>2024-06-03T17:15:31Z</time>
      </trkpt>
      <trkpt lat="48.56885" lon="-3.08605">
        <ele>128</ele>
        <time>2024-06-03T17:15:35Z</time>
      </trkpt>
      <trkpt lat="48.56859" lon="-3.08566">
        <ele>128</ele>
        <time>2024-06-03T17:15:43Z</time>
      </trkpt>
      <trkpt lat="48.56843" lon="-3.08547">
        <ele>128</ele>
        <time>2024-06-03T17:15:48Z</time>
      </trkpt>
      <trkpt lat="48.56801" lon="-3.08516">
        <ele>128</ele>
        <time>2024-06-03T17:15:59Z</time>
      </trkpt>
      <trkpt lat="48.56766" lon="-3.08477">
        <ele>128</ele>
        <time>2024-06-03T17:16:09Z</time>
      </trkpt>
      <trkpt lat="48.5674" lon="-3.08466">
        <ele>129</ele>
        <time>2024-06-03T17:16:15Z</time>
      </trkpt>
      <trkpt lat="48.56714" lon="-3.08489">
        <ele>129</ele>
        <time>2024-06-03T17:16:22Z</time>
      </trkpt>
      <trkpt lat="48.5667" lon="-3.08544">
        <ele>130</ele>
        <time>2024-06-03T17:16:36Z</time>
      </trkpt>
      <trkpt lat="48.5661" lon="-3.08683">
        <ele>130</ele>
        <time>2024-06-03T17:17:01Z</time>
      </trkpt>
      <trkpt lat="48.56575" lon="-3.08718">
        <ele>130</ele>
        <time>2024-06-03T17:17:11Z</time>
      </trkpt>
      <trkpt lat="48.56557" lon="-3.08726">
        <ele>131</ele>
        <time>2024-06-03T17:17:16Z</time>
      </trkpt>
      <trkpt lat="48.56523" lon="-3.0868">
        <ele>131</ele>
        <time>2024-06-03T17:17:26Z</time>
      </trkpt>
      <trkpt lat="48.56504" lon="-3.08659">
        <ele>132</ele>
        <time>2024-06-03T17:17:32Z</time>
      </trkpt>
      <trkpt lat="48.56465" lon="-3.08635">
        <ele>132</ele>
        <time>2024-06-03T17:17:42Z</time>
      </trkpt>
      <trkpt lat="48.56447" lon="-3.0862">
        <ele>133</ele>
        <time>2024-06-03T17:17:46Z</time>
      </trkpt>
      <trkpt lat="48.56434" lon="-3.08586">
        <ele>133</ele>
        <time>2024-06-03T17:17:53Z</time>
      </trkpt>
      <trkpt lat="48.56448" lon="-3.08542">
        <ele>132</ele>
        <time>2024-06-03T17:18:00Z</time>
      </trkpt>
      <trkpt lat="48.565" lon="-3.08414">
        <ele>130</ele>
        <time>2024-06-03T17:18:23Z</time>
      </trkpt>
      <trkpt lat="48.56487" lon="-3.08365">
        <ele>129</ele>
        <time>2024-06-03T17:18:31Z</time>
      </trkpt>
      <trkpt lat="48.56486" lon="-3.08321">
        <ele>129</ele>
        <time>2024-06-03T17:18:38Z</time>
      </trkpt>
      <trkpt lat="48.56493" lon="-3.08268">
        <ele>130</ele>
        <time>2024-06-03T17:18:47Z</time>
      </trkpt>
      <trkpt lat="48.56504" lon="-3.08232">
        <ele>130</ele>
        <time>2024-06-03T17:18:53Z</time>
      </trkpt>
      <trkpt lat="48.56521" lon="-3.08196">
        <ele>130</ele>
        <time>2024-06-03T17:19:00Z</time>
      </trkpt>
      <trkpt lat="48.56546" lon="-3.08159">
        <ele>129</ele>
        <time>2024-06-03T17:19:08Z</time>
      </trkpt>
      <trkpt lat="48.56566" lon="-3.08116">
        <ele>127</ele>
        <time>2024-06-03T17:19:16Z</time>
      </trkpt>
      <trkpt lat="48.56541" lon="-3.08106">
        <ele>128</ele>
        <time>2024-06-03T17:19:22Z</time>
      </trkpt>
      <trkpt lat="48.56506" lon="-3.0808">
        <ele>130</ele>
        <time>2024-06-03T17:19:31Z</time>
      </trkpt>
      <trkpt lat="48.565" lon="-3.08059">
        <ele>129</ele>
        <time>2024-06-03T17:19:35Z</time>
      </trkpt>
      <trkpt lat="48.56521" lon="-3.07946">
        <ele>126</ele>
        <time>2024-06-03T17:19:53Z</time>
      </trkpt>
      <trkpt lat="48.56524" lon="-3.07909">
        <ele>126</ele>
        <time>2024-06-03T17:19:58Z</time>
      </trkpt>
      <trkpt lat="48.5652" lon="-3.07871">
        <ele>125</ele>
        <time>2024-06-03T17:20:04Z</time>
      </trkpt>
      <trkpt lat="48.56521" lon="-3.07837">
        <ele>124</ele>
        <time>2024-06-03T17:20:10Z</time>
      </trkpt>
      <trkpt lat="48.56514" lon="-3.07772">
        <ele>125</ele>
        <time>2024-06-03T17:20:20Z</time>
      </trkpt>
      <trkpt lat="48.56509" lon="-3.07747">
        <ele>125</ele>
        <time>2024-06-03T17:20:24Z</time>
      </trkpt>
      <trkpt lat="48.56494" lon="-3.07769">
        <ele>125</ele>
        <time>2024-06-03T17:20:29Z</time>
      </trkpt>
      <trkpt lat="48.56488" lon="-3.07783">
        <ele>125</ele>
        <time>2024-06-03T17:20:31Z</time>
      </trkpt>
      <trkpt lat="48.56465" lon="-3.07816">
        <ele>125</ele>
        <time>2024-06-03T17:20:39Z</time>
      </trkpt>
      <trkpt lat="48.56429" lon="-3.07861">
        <ele>127</ele>
        <time>2024-06-03T17:20:50Z</time>
      </trkpt>
      <trkpt lat="48.56384" lon="-3.07906">
        <ele>127</ele>
        <time>2024-06-03T17:21:02Z</time>
      </trkpt>
      <trkpt lat="48.56363" lon="-3.07935">
        <ele>128</ele>
        <time>2024-06-03T17:21:09Z</time>
      </trkpt>
      <trkpt lat="48.56345" lon="-3.07964">
        <ele>129</ele>
        <time>2024-06-03T17:21:15Z</time>
      </trkpt>
      <trkpt lat="48.563" lon="-3.08055">
        <ele>130</ele>
        <time>2024-06-03T17:21:33Z</time>
      </trkpt>
      <trkpt lat="48.5624" lon="-3.0813">
        <ele>131</ele>
        <time>2024-06-03T17:21:51Z</time>
      </trkpt>
      <trkpt lat="48.56229" lon="-3.08158">
        <ele>131</ele>
        <time>2024-06-03T17:21:56Z</time>
      </trkpt>
      <trkpt lat="48.5621" lon="-3.0823">
        <ele>131</ele>
        <time>2024-06-03T17:22:08Z</time>
      </trkpt>
      <trkpt lat="48.56195" lon="-3.0827">
        <ele>132</ele>
        <time>2024-06-03T17:22:15Z</time>
      </trkpt>
      <trkpt lat="48.56173" lon="-3.08262">
        <ele>132</ele>
        <time>2024-06-03T17:22:20Z</time>
      </trkpt>
      <trkpt lat="48.56149" lon="-3.08244">
        <ele>132</ele>
        <time>2024-06-03T17:22:26Z</time>
      </trkpt>
      <trkpt lat="48.56091" lon="-3.08209">
        <ele>132</ele>
        <time>2024-06-03T17:22:41Z</time>
      </trkpt>
      <trkpt lat="48.56061" lon="-3.08188">
        <ele>131</ele>
        <time>2024-06-03T17:22:49Z</time>
      </trkpt>
      <trkpt lat="48.56027" lon="-3.0817">
        <ele>131</ele>
        <time>2024-06-03T17:22:57Z</time>
      </trkpt>
      <trkpt lat="48.55996" lon="-3.08166">
        <ele>130</ele>
        <time>2024-06-03T17:23:04Z</time>
      </trkpt>
      <trkpt lat="48.55968" lon="-3.08156">
        <ele>130</ele>
        <time>2024-06-03T17:23:11Z</time>
      </trkpt>
      <trkpt lat="48.55909" lon="-3.08122">
        <ele>130</ele>
        <time>2024-06-03T17:23:26Z</time>
      </trkpt>
      <trkpt lat="48.55848" lon="-3.08069">
        <ele>130</ele>
        <time>2024-06-03T17:23:42Z</time>
      </trkpt>
      <trkpt lat="48.55824" lon="-3.08027">
        <ele>131</ele>
        <time>2024-06-03T17:23:51Z</time>
      </trkpt>
      <trkpt lat="48.55774" lon="-3.07963">
        <ele>130</ele>
        <time>2024-06-03T17:24:06Z</time>
      </trkpt>
      <trkpt lat="48.55749" lon="-3.0792">
        <ele>129</ele>
        <time>2024-06-03T17:24:15Z</time>
      </trkpt>
      <trkpt lat="48.5574" lon="-3.07879">
        <ele>129</ele>
        <time>2024-06-03T17:24:22Z</time>
      </trkpt>
      <trkpt lat="48.55737" lon="-3.07837">
        <ele>129</ele>
        <time>2024-06-03T17:24:28Z</time>
      </trkpt>
      <trkpt lat="48.55739" lon="-3.07791">
        <ele>129</ele>
        <time>2024-06-03T17:24:35Z</time>
      </trkpt>
      <trkpt lat="48.55718" lon="-3.07785">
        <ele>129</ele>
        <time>2024-06-03T17:24:40Z</time>
      </trkpt>
      <trkpt lat="48.55694" lon="-3.07785">
        <ele>129</ele>
        <time>2024-06-03T17:24:46Z</time>
      </trkpt>
      <trkpt lat="48.55604" lon="-3.07773">
        <ele>128</ele>
        <time>2024-06-03T17:25:07Z</time>
      </trkpt>
      <trkpt lat="48.55582" lon="-3.07764">
        <ele>128</ele>
        <time>2024-06-03T17:25:12Z</time>
      </trkpt>
      <trkpt lat="48.5555" lon="-3.07684">
        <ele>130</ele>
        <time>2024-06-03T17:25:27Z</time>
      </trkpt>
      <trkpt lat="48.55489" lon="-3.07685">
        <ele>129</ele>
        <time>2024-06-03T17:25:41Z</time>
      </trkpt>
      <trkpt lat="48.55439" lon="-3.07666">
        <ele>129</ele>
        <time>2024-06-03T17:25:53Z</time>
      </trkpt>
      <trkpt lat="48.55403" lon="-3.07645">
        <ele>130</ele>
        <time>2024-06-03T17:26:02Z</time>
      </trkpt>
      <trkpt lat="48.55431" lon="-3.07768">
        <ele>127</ele>
        <time>2024-06-03T17:26:22Z</time>
      </trkpt>
      <trkpt lat="48.55443" lon="-3.07838">
        <ele>128</ele>
        <time>2024-06-03T17:26:33Z</time>
      </trkpt>
      <trkpt lat="48.5546" lon="-3.07864">
        <ele>128</ele>
        <time>2024-06-03T17:26:39Z</time>
      </trkpt>
      <trkpt lat="48.55505" lon="-3.07963">
        <ele>128</ele>
        <time>2024-06-03T17:26:58Z</time>
      </trkpt>
      <trkpt lat="48.55524" lon="-3.08059">
        <ele>126</ele>
        <time>2024-06-03T17:27:13Z</time>
      </trkpt>
      <trkpt lat="48.55544" lon="-3.08145">
        <ele>127</ele>
        <time>2024-06-03T17:27:27Z</time>
      </trkpt>
      <trkpt lat="48.55571" lon="-3.08345">
        <ele>126</ele>
        <time>2024-06-03T17:27:59Z</time>
      </trkpt>
      <trkpt lat="48.55596" lon="-3.0844">
        <ele>125</ele>
        <time>2024-06-03T17:28:15Z</time>
      </trkpt>
      <trkpt lat="48.55644" lon="-3.08593">
        <ele>122</ele>
        <time>2024-06-03T17:28:41Z</time>
      </trkpt>
      <trkpt lat="48.55659" lon="-3.08633">
        <ele>121</ele>
        <time>2024-06-03T17:28:48Z</time>
      </trkpt>
      <trkpt lat="48.55668" lon="-3.08675">
        <ele>121</ele>
        <time>2024-06-03T17:28:55Z</time>
      </trkpt>
      <trkpt lat="48.55599" lon="-3.0867">
        <ele>120</ele>
        <time>2024-06-03T17:29:11Z</time>
      </trkpt>
      <trkpt lat="48.55574" lon="-3.08676">
        <ele>120</ele>
        <time>2024-06-03T17:29:17Z</time>
      </trkpt>
      <trkpt lat="48.55549" lon="-3.08678">
        <ele>120</ele>
        <time>2024-06-03T17:29:23Z</time>
      </trkpt>
      <trkpt lat="48.55522" lon="-3.08696">
        <ele>120</ele>
        <time>2024-06-03T17:29:29Z</time>
      </trkpt>
      <trkpt lat="48.55468" lon="-3.0871">
        <ele>119</ele>
        <time>2024-06-03T17:29:42Z</time>
      </trkpt>
      <trkpt lat="48.55427" lon="-3.08731">
        <ele>117</ele>
        <time>2024-06-03T17:29:52Z</time>
      </trkpt>
      <trkpt lat="48.5539" lon="-3.08742">
        <ele>117</ele>
        <time>2024-06-03T17:30:01Z</time>
      </trkpt>
      <trkpt lat="48.55377" lon="-3.08726">
        <ele>117</ele>
        <time>2024-06-03T17:30:05Z</time>
      </trkpt>
      <trkpt lat="48.5537" lon="-3.08709">
        <ele>117</ele>
        <time>2024-06-03T17:30:08Z</time>
      </trkpt>
      <trkpt lat="48.55363" lon="-3.08659">
        <ele>118</ele>
        <time>2024-06-03T17:30:16Z</time>
      </trkpt>
      <trkpt lat="48.55369" lon="-3.08609">
        <ele>119</ele>
        <time>2024-06-03T17:30:24Z</time>
      </trkpt>
      <trkpt lat="48.55369" lon="-3.08589">
        <ele>119</ele>
        <time>2024-06-03T17:30:27Z</time>
      </trkpt>
      <trkpt lat="48.55377" lon="-3.08536">
        <ele>120</ele>
        <time>2024-06-03T17:30:35Z</time>
      </trkpt>
      <trkpt lat="48.55391" lon="-3.08485">
        <ele>120</ele>
        <time>2024-06-03T17:30:44Z</time>
      </trkpt>
      <trkpt lat="48.55387" lon="-3.08436">
        <ele>121</ele>
        <time>2024-06-03T17:30:52Z</time>
      </trkpt>
      <trkpt lat="48.55382" lon="-3.08418">
        <ele>121</ele>
        <time>2024-06-03T17:30:55Z</time>
      </trkpt>
      <trkpt lat="48.55372" lon="-3.08408">
        <ele>120</ele>
        <time>2024-06-03T17:30:57Z</time>
      </trkpt>
      <trkpt lat="48.5536" lon="-3.08403">
        <ele>120</ele>
        <time>2024-06-03T17:31:00Z</time>
      </trkpt>
      <trkpt lat="48.55351" lon="-3.08403">
        <ele>120</ele>
        <time>2024-06-03T17:31:02Z</time>
      </trkpt>
      <trkpt lat="48.55327" lon="-3.08409">
        <ele>120</ele>
        <time>2024-06-03T17:31:08Z</time>
      </trkpt>
      <trkpt lat="48.55313" lon="-3.08409">
        <ele>121</ele>
        <time>2024-06-03T17:31:11Z</time>
      </trkpt>
      <trkpt lat="48.55293" lon="-3.08401">
        <ele>121</ele>
        <time>2024-06-03T17:31:16Z</time>
      </trkpt>
      <trkpt lat="48.55281" lon="-3.08399">
        <ele>121</ele>
        <time>2024-06-03T17:31:19Z</time>
      </trkpt>
      <trkpt lat="48.55269" lon="-3.08385">
        <ele>122</ele>
        <time>2024-06-03T17:31:23Z</time>
      </trkpt>
      <trkpt lat="48.55253" lon="-3.08377">
        <ele>122</ele>
        <time>2024-06-03T17:31:26Z</time>
      </trkpt>
      <trkpt lat="48.55221" lon="-3.08351">
        <ele>123</ele>
        <time>2024-06-03T17:31:35Z</time>
      </trkpt>
      <trkpt lat="48.55208" lon="-3.08337">
        <ele>124</ele>
        <time>2024-06-03T17:31:39Z</time>
      </trkpt>
      <trkpt lat="48.55193" lon="-3.08315">
        <ele>125</ele>
        <time>2024-06-03T17:31:44Z</time>
      </trkpt>
      <trkpt lat="48.55181" lon="-3.08259">
        <ele>126</ele>
        <time>2024-06-03T17:31:53Z</time>
      </trkpt>
      <trkpt lat="48.55164" lon="-3.08257">
        <ele>127</ele>
        <time>2024-06-03T17:31:57Z</time>
      </trkpt>
      <trkpt lat="48.55156" lon="-3.08263">
        <ele>127</ele>
        <time>2024-06-03T17:31:59Z</time>
      </trkpt>
      <trkpt lat="48.55149" lon="-3.08261">
        <ele>127</ele>
        <time>2024-06-03T17:32:00Z</time>
      </trkpt>
      <trkpt lat="48.55142" lon="-3.08176">
        <ele>128</ele>
        <time>2024-06-03T17:32:14Z</time>
      </trkpt>
      <trkpt lat="48.55133" lon="-3.08143">
        <ele>129</ele>
        <time>2024-06-03T17:32:19Z</time>
      </trkpt>
      <trkpt lat="48.55113" lon="-3.07964">
        <ele>132</ele>
        <time>2024-06-03T17:32:47Z</time>
      </trkpt>
      <trkpt lat="48.55105" lon="-3.0793">
        <ele>134</ele>
        <time>2024-06-03T17:32:53Z</time>
      </trkpt>
      <trkpt lat="48.55101" lon="-3.07893">
        <ele>134</ele>
        <time>2024-06-03T17:32:59Z</time>
      </trkpt>
      <trkpt lat="48.55085" lon="-3.07804">
        <ele>134</ele>
        <time>2024-06-03T17:33:13Z</time>
      </trkpt>
      <trkpt lat="48.55073" lon="-3.07787">
        <ele>134</ele>
        <time>2024-06-03T17:33:17Z</time>
      </trkpt>
      <trkpt lat="48.55006" lon="-3.07735">
        <ele>135</ele>
        <time>2024-06-03T17:33:34Z</time>
      </trkpt>
      <trkpt lat="48.54976" lon="-3.07707">
        <ele>136</ele>
        <time>2024-06-03T17:33:43Z</time>
      </trkpt>
      <trkpt lat="48.54935" lon="-3.07689">
        <ele>137</ele>
        <time>2024-06-03T17:33:52Z</time>
      </trkpt>
      <trkpt lat="48.54811" lon="-3.07674">
        <ele>139</ele>
        <time>2024-06-03T17:34:22Z</time>
      </trkpt>
      <trkpt lat="48.54791" lon="-3.07674">
        <ele>139</ele>
        <time>2024-06-03T17:34:26Z</time>
      </trkpt>
      <trkpt lat="48.54773" lon="-3.07677">
        <ele>139</ele>
        <time>2024-06-03T17:34:30Z</time>
      </trkpt>
      <trkpt lat="48.54741" lon="-3.07671">
        <ele>139</ele>
        <time>2024-06-03T17:34:38Z</time>
      </trkpt>
      <trkpt lat="48.54674" lon="-3.07789">
        <ele>135</ele>
        <time>2024-06-03T17:35:02Z</time>
      </trkpt>
      <trkpt lat="48.54658" lon="-3.07825">
        <ele>133</ele>
        <time>2024-06-03T17:35:09Z</time>
      </trkpt>
      <trkpt lat="48.5462" lon="-3.07893">
        <ele>131</ele>
        <time>2024-06-03T17:35:22Z</time>
      </trkpt>
      <trkpt lat="48.54608" lon="-3.07938">
        <ele>131</ele>
        <time>2024-06-03T17:35:30Z</time>
      </trkpt>
      <trkpt lat="48.54606" lon="-3.07964">
        <ele>130</ele>
        <time>2024-06-03T17:35:34Z</time>
      </trkpt>
      <trkpt lat="48.54631" lon="-3.08011">
        <ele>130</ele>
        <time>2024-06-03T17:35:43Z</time>
      </trkpt>
      <trkpt lat="48.54635" lon="-3.0803">
        <ele>130</ele>
        <time>2024-06-03T17:35:46Z</time>
      </trkpt>
      <trkpt lat="48.54637" lon="-3.08028">
        <ele>130</ele>
        <time>2024-06-03T17:35:47Z</time>
      </trkpt>
      <trkpt lat="48.54632" lon="-3.0803">
        <ele>130</ele>
        <time>2024-06-03T17:35:48Z</time>
      </trkpt>
      <trkpt lat="48.54646" lon="-3.08046">
        <ele>130</ele>
        <time>2024-06-03T17:35:52Z</time>
      </trkpt>
      <trkpt lat="48.54663" lon="-3.08088">
        <ele>129</ele>
        <time>2024-06-03T17:36:00Z</time>
      </trkpt>
      <trkpt lat="48.54678" lon="-3.08142">
        <ele>130</ele>
        <time>2024-06-03T17:36:09Z</time>
      </trkpt>
      <trkpt lat="48.54679" lon="-3.08158">
        <ele>130</ele>
        <time>2024-06-03T17:36:11Z</time>
      </trkpt>
      <trkpt lat="48.54706" lon="-3.08247">
        <ele>130</ele>
        <time>2024-06-03T17:36:27Z</time>
      </trkpt>
      <trkpt lat="48.54712" lon="-3.08262">
        <ele>130</ele>
        <time>2024-06-03T17:36:29Z</time>
      </trkpt>
      <trkpt lat="48.54739" lon="-3.083">
        <ele>130</ele>
        <time>2024-06-03T17:36:38Z</time>
      </trkpt>
      <trkpt lat="48.54768" lon="-3.08332">
        <ele>130</ele>
        <time>2024-06-03T17:36:46Z</time>
      </trkpt>
      <trkpt lat="48.54821" lon="-3.084">
        <ele>128</ele>
        <time>2024-06-03T17:37:03Z</time>
      </trkpt>
      <trkpt lat="48.54812" lon="-3.08433">
        <ele>128</ele>
        <time>2024-06-03T17:37:08Z</time>
      </trkpt>
      <trkpt lat="48.54817" lon="-3.0844">
        <ele>128</ele>
        <time>2024-06-03T17:37:10Z</time>
      </trkpt>
      <trkpt lat="48.54838" lon="-3.08453">
        <ele>128</ele>
        <time>2024-06-03T17:37:15Z</time>
      </trkpt>
      <trkpt lat="48.54948" lon="-3.08466">
        <ele>126</ele>
        <time>2024-06-03T17:37:41Z</time>
      </trkpt>
      <trkpt lat="48.55006" lon="-3.08479">
        <ele>125</ele>
        <time>2024-06-03T17:37:54Z</time>
      </trkpt>
      <trkpt lat="48.55077" lon="-3.08485">
        <ele>126</ele>
        <time>2024-06-03T17:38:11Z</time>
      </trkpt>
      <trkpt lat="48.55107" lon="-3.08477">
        <ele>126</ele>
        <time>2024-06-03T17:38:18Z</time>
      </trkpt>
      <trkpt lat="48.5517" lon="-3.08517">
        <ele>124</ele>
        <time>2024-06-03T17:38:34Z</time>
      </trkpt>
      <trkpt lat="48.55196" lon="-3.08561">
        <ele>123</ele>
        <time>2024-06-03T17:38:43Z</time>
      </trkpt>
      <trkpt lat="48.552" lon="-3.08615">
        <ele>123</ele>
        <time>2024-06-03T17:38:52Z</time>
      </trkpt>
      <trkpt lat="48.55211" lon="-3.08667">
        <ele>122</ele>
        <time>2024-06-03T17:39:00Z</time>
      </trkpt>
      <trkpt lat="48.55228" lon="-3.08804">
        <ele>120</ele>
        <time>2024-06-03T17:39:22Z</time>
      </trkpt>
      <trkpt lat="48.55256" lon="-3.08949">
        <ele>120</ele>
        <time>2024-06-03T17:39:45Z</time>
      </trkpt>
      <trkpt lat="48.55267" lon="-3.08994">
        <ele>120</ele>
        <time>2024-06-03T17:39:52Z</time>
      </trkpt>
      <trkpt lat="48.5528" lon="-3.0911">
        <ele>120</ele>
        <time>2024-06-03T17:40:11Z</time>
      </trkpt>
      <trkpt lat="48.55307" lon="-3.09241">
        <ele>119</ele>
        <time>2024-06-03T17:40:32Z</time>
      </trkpt>
      <trkpt lat="48.55331" lon="-3.09424">
        <ele>118</ele>
        <time>2024-06-03T17:41:01Z</time>
      </trkpt>
      <trkpt lat="48.55326" lon="-3.09455">
        <ele>119</ele>
        <time>2024-06-03T17:41:05Z</time>
      </trkpt>
      <trkpt lat="48.55327" lon="-3.09495">
        <ele>120</ele>
        <time>2024-06-03T17:41:12Z</time>
      </trkpt>
      <trkpt lat="48.55316" lon="-3.0952">
        <ele>120</ele>
        <time>2024-06-03T17:41:16Z</time>
      </trkpt>
      <trkpt lat="48.55294" lon="-3.09528">
        <ele>120</ele>
        <time>2024-06-03T17:41:22Z</time>
      </trkpt>
      <trkpt lat="48.55268" lon="-3.09545">
        <ele>121</ele>
        <time>2024-06-03T17:41:28Z</time>
      </trkpt>
      <trkpt lat="48.55247" lon="-3.09567">
        <ele>121</ele>
        <time>2024-06-03T17:41:34Z</time>
      </trkpt>
      <trkpt lat="48.55223" lon="-3.09576">
        <ele>121</ele>
        <time>2024-06-03T17:41:40Z</time>
      </trkpt>
      <trkpt lat="48.55201" lon="-3.09566">
        <ele>122</ele>
        <time>2024-06-03T17:41:45Z</time>
      </trkpt>
      <trkpt lat="48.55176" lon="-3.09549">
        <ele>122</ele>
        <time>2024-06-03T17:41:52Z</time>
      </trkpt>
      <trkpt lat="48.55164" lon="-3.09599">
        <ele>122</ele>
        <time>2024-06-03T17:42:00Z</time>
      </trkpt>
      <trkpt lat="48.55153" lon="-3.09673">
        <ele>120</ele>
        <time>2024-06-03T17:42:12Z</time>
      </trkpt>
      <trkpt lat="48.55142" lon="-3.0972">
        <ele>120</ele>
        <time>2024-06-03T17:42:19Z</time>
      </trkpt>
      <trkpt lat="48.55113" lon="-3.10012">
        <ele>116</ele>
        <time>2024-06-03T17:43:05Z</time>
      </trkpt>
      <trkpt lat="48.55122" lon="-3.10026">
        <ele>116</ele>
        <time>2024-06-03T17:43:08Z</time>
      </trkpt>
      <trkpt lat="48.55162" lon="-3.10071">
        <ele>116</ele>
        <time>2024-06-03T17:43:20Z</time>
      </trkpt>
      <trkpt lat="48.55169" lon="-3.10093">
        <ele>116</ele>
        <time>2024-06-03T17:43:23Z</time>
      </trkpt>
      <trkpt lat="48.55164" lon="-3.10148">
        <ele>117</ele>
        <time>2024-06-03T17:43:32Z</time>
      </trkpt>
      <trkpt lat="48.55186" lon="-3.10153">
        <ele>117</ele>
        <time>2024-06-03T17:43:37Z</time>
      </trkpt>
      <trkpt lat="48.5521" lon="-3.10162">
        <ele>117</ele>
        <time>2024-06-03T17:43:43Z</time>
      </trkpt>
      <trkpt lat="48.55336" lon="-3.10218">
        <ele>119</ele>
        <time>2024-06-03T17:44:14Z</time>
      </trkpt>
      <trkpt lat="48.5537" lon="-3.10239">
        <ele>119</ele>
        <time>2024-06-03T17:44:22Z</time>
      </trkpt>
      <trkpt lat="48.55428" lon="-3.10263">
        <ele>119</ele>
        <time>2024-06-03T17:44:36Z</time>
      </trkpt>
      <trkpt lat="48.55442" lon="-3.10278">
        <ele>120</ele>
        <time>2024-06-03T17:44:40Z</time>
      </trkpt>
      <trkpt lat="48.5545" lon="-3.10314">
        <ele>120</ele>
        <time>2024-06-03T17:44:46Z</time>
      </trkpt>
      <trkpt lat="48.55466" lon="-3.10429">
        <ele>121</ele>
        <time>2024-06-03T17:45:04Z</time>
      </trkpt>
      <trkpt lat="48.55476" lon="-3.10472">
        <ele>121</ele>
        <time>2024-06-03T17:45:11Z</time>
      </trkpt>
      <trkpt lat="48.55473" lon="-3.10482">
        <ele>121</ele>
        <time>2024-06-03T17:45:13Z</time>
      </trkpt>
      <trkpt lat="48.5549" lon="-3.1059">
        <ele>121</ele>
        <time>2024-06-03T17:45:30Z</time>
      </trkpt>
      <trkpt lat="48.55494" lon="-3.10627">
        <ele>121</ele>
        <time>2024-06-03T17:45:36Z</time>
      </trkpt>
      <trkpt lat="48.55493" lon="-3.10646">
        <ele>120</ele>
        <time>2024-06-03T17:45:39Z</time>
      </trkpt>
      <trkpt lat="48.55503" lon="-3.10693">
        <ele>120</ele>
        <time>2024-06-03T17:45:47Z</time>
      </trkpt>
      <trkpt lat="48.55503" lon="-3.10717">
        <ele>120</ele>
        <time>2024-06-03T17:45:50Z</time>
      </trkpt>
      <trkpt lat="48.55507" lon="-3.10749">
        <ele>120</ele>
        <time>2024-06-03T17:45:55Z</time>
      </trkpt>
      <trkpt lat="48.55523" lon="-3.10844">
        <ele>121</ele>
        <time>2024-06-03T17:46:11Z</time>
      </trkpt>
      <trkpt lat="48.55538" lon="-3.10889">
        <ele>121</ele>
        <time>2024-06-03T17:46:18Z</time>
      </trkpt>
      <trkpt lat="48.55578" lon="-3.11162">
        <ele>117</ele>
        <time>2024-06-03T17:47:02Z</time>
      </trkpt>
      <trkpt lat="48.55578" lon="-3.11182">
        <ele>117</ele>
        <time>2024-06-03T17:47:05Z</time>
      </trkpt>
      <trkpt lat="48.5559" lon="-3.1123">
        <ele>117</ele>
        <time>2024-06-03T17:47:13Z</time>
      </trkpt>
      <trkpt lat="48.55601" lon="-3.11315">
        <ele>117</ele>
        <time>2024-06-03T17:47:26Z</time>
      </trkpt>
      <trkpt lat="48.55612" lon="-3.11307">
        <ele>117</ele>
        <time>2024-06-03T17:47:29Z</time>
      </trkpt>
      <trkpt lat="48.55628" lon="-3.11301">
        <ele>117</ele>
        <time>2024-06-03T17:47:33Z</time>
      </trkpt>
      <trkpt lat="48.55656" lon="-3.11299">
        <ele>116</ele>
        <time>2024-06-03T17:47:39Z</time>
      </trkpt>
      <trkpt lat="48.55761" lon="-3.11325">
        <ele>119</ele>
        <time>2024-06-03T17:48:04Z</time>
      </trkpt>
      <trkpt lat="48.55765" lon="-3.11349">
        <ele>120</ele>
        <time>2024-06-03T17:48:08Z</time>
      </trkpt>
      <trkpt lat="48.55764" lon="-3.11415">
        <ele>121</ele>
        <time>2024-06-03T17:48:18Z</time>
      </trkpt>
      <trkpt lat="48.55768" lon="-3.11486">
        <ele>121</ele>
        <time>2024-06-03T17:48:29Z</time>
      </trkpt>
      <trkpt lat="48.55772" lon="-3.11526">
        <ele>121</ele>
        <time>2024-06-03T17:48:35Z</time>
      </trkpt>
      <trkpt lat="48.55778" lon="-3.11557">
        <ele>120</ele>
        <time>2024-06-03T17:48:40Z</time>
      </trkpt>
      <trkpt lat="48.55805" lon="-3.11609">
        <ele>120</ele>
        <time>2024-06-03T17:48:51Z</time>
      </trkpt>
      <trkpt lat="48.55815" lon="-3.11661">
        <ele>120</ele>
        <time>2024-06-03T17:48:59Z</time>
      </trkpt>
      <trkpt lat="48.55824" lon="-3.1169">
        <ele>119</ele>
        <time>2024-06-03T17:49:04Z</time>
      </trkpt>
      <trkpt lat="48.55837" lon="-3.11748">
        <ele>117</ele>
        <time>2024-06-03T17:49:13Z</time>
      </trkpt>
      <trkpt lat="48.55854" lon="-3.1176">
        <ele>118</ele>
        <time>2024-06-03T17:49:18Z</time>
      </trkpt>
      <trkpt lat="48.55861" lon="-3.1176">
        <ele>118</ele>
        <time>2024-06-03T17:49:19Z</time>
      </trkpt>
      <trkpt lat="48.55864" lon="-3.11768">
        <ele>118</ele>
        <time>2024-06-03T17:49:21Z</time>
      </trkpt>
      <trkpt lat="48.55885" lon="-3.11798">
        <ele>119</ele>
        <time>2024-06-03T17:49:28Z</time>
      </trkpt>
      <trkpt lat="48.55891" lon="-3.11822">
        <ele>118</ele>
        <time>2024-06-03T17:49:31Z</time>
      </trkpt>
      <trkpt lat="48.55887" lon="-3.11838">
        <ele>118</ele>
        <time>2024-06-03T17:49:34Z</time>
      </trkpt>
      <trkpt lat="48.55867" lon="-3.11842">
        <ele>118</ele>
        <time>2024-06-03T17:49:39Z</time>
      </trkpt>
      <trkpt lat="48.55841" lon="-3.11859">
        <ele>117</ele>
        <time>2024-06-03T17:49:45Z</time>
      </trkpt>
      <trkpt lat="48.55843" lon="-3.1188">
        <ele>116</ele>
        <time>2024-06-03T17:49:49Z</time>
      </trkpt>
      <trkpt lat="48.55861" lon="-3.1189">
        <ele>116</ele>
        <time>2024-06-03T17:49:53Z</time>
      </trkpt>
      <trkpt lat="48.55887" lon="-3.11935">
        <ele>115</ele>
        <time>2024-06-03T17:50:02Z</time>
      </trkpt>
      <trkpt lat="48.55894" lon="-3.11964">
        <ele>114</ele>
        <time>2024-06-03T17:50:07Z</time>
      </trkpt>
      <trkpt lat="48.55904" lon="-3.11976">
        <ele>113</ele>
        <time>2024-06-03T17:50:10Z</time>
      </trkpt>
      <trkpt lat="48.5591" lon="-3.11979">
        <ele>113</ele>
        <time>2024-06-03T17:50:12Z</time>
      </trkpt>
      <trkpt lat="48.55917" lon="-3.11979">
        <ele>113</ele>
        <time>2024-06-03T17:50:13Z</time>
      </trkpt>
      <trkpt lat="48.55921" lon="-3.11977">
        <ele>114</ele>
        <time>2024-06-03T17:50:14Z</time>
      </trkpt>
      <trkpt lat="48.55927" lon="-3.11924">
        <ele>117</ele>
        <time>2024-06-03T17:50:23Z</time>
      </trkpt>
      <trkpt lat="48.55938" lon="-3.11873">
        <ele>118</ele>
        <time>2024-06-03T17:50:31Z</time>
      </trkpt>
      <trkpt lat="48.55945" lon="-3.11795">
        <ele>120</ele>
        <time>2024-06-03T17:50:43Z</time>
      </trkpt>
      <trkpt lat="48.55954" lon="-3.11789">
        <ele>121</ele>
        <time>2024-06-03T17:50:45Z</time>
      </trkpt>
      <trkpt lat="48.55954" lon="-3.11777">
        <ele>121</ele>
        <time>2024-06-03T17:50:47Z</time>
      </trkpt>
      <trkpt lat="48.55941" lon="-3.11739">
        <ele>121</ele>
        <time>2024-06-03T17:50:54Z</time>
      </trkpt>
      <trkpt lat="48.55944" lon="-3.11729">
        <ele>122</ele>
        <time>2024-06-03T17:50:56Z</time>
      </trkpt>
      <trkpt lat="48.55957" lon="-3.11728">
        <ele>122</ele>
        <time>2024-06-03T17:50:59Z</time>
      </trkpt>
      <trkpt lat="48.55985" lon="-3.11732">
        <ele>123</ele>
        <time>2024-06-03T17:51:05Z</time>
      </trkpt>
      <trkpt lat="48.55981" lon="-3.11707">
        <ele>123</ele>
        <time>2024-06-03T17:51:09Z</time>
      </trkpt>
      <trkpt lat="48.55981" lon="-3.11682">
        <ele>123</ele>
        <time>2024-06-03T17:51:13Z</time>
      </trkpt>
      <trkpt lat="48.55988" lon="-3.11625">
        <ele>124</ele>
        <time>2024-06-03T17:51:22Z</time>
      </trkpt>
      <trkpt lat="48.56011" lon="-3.11568">
        <ele>124</ele>
        <time>2024-06-03T17:51:32Z</time>
      </trkpt>
      <trkpt lat="48.56021" lon="-3.11534">
        <ele>124</ele>
        <time>2024-06-03T17:51:38Z</time>
      </trkpt>
      <trkpt lat="48.56029" lon="-3.11503">
        <ele>124</ele>
        <time>2024-06-03T17:51:43Z</time>
      </trkpt>
      <trkpt lat="48.56042" lon="-3.11421">
        <ele>124</ele>
        <time>2024-06-03T17:51:56Z</time>
      </trkpt>
      <trkpt lat="48.56053" lon="-3.11392">
        <ele>124</ele>
        <time>2024-06-03T17:52:01Z</time>
      </trkpt>
      <trkpt lat="48.56067" lon="-3.11364">
        <ele>123</ele>
        <time>2024-06-03T17:52:07Z</time>
      </trkpt>
      <trkpt lat="48.56091" lon="-3.11338">
        <ele>122</ele>
        <time>2024-06-03T17:52:14Z</time>
      </trkpt>
      <trkpt lat="48.56083" lon="-3.11284">
        <ele>122</ele>
        <time>2024-06-03T17:52:22Z</time>
      </trkpt>
      <trkpt lat="48.56032" lon="-3.11286">
        <ele>124</ele>
        <time>2024-06-03T17:52:34Z</time>
      </trkpt>
      <trkpt lat="48.55937" lon="-3.11279">
        <ele>124</ele>
        <time>2024-06-03T17:52:56Z</time>
      </trkpt>
      <trkpt lat="48.55921" lon="-3.11282">
        <ele>124</ele>
        <time>2024-06-03T17:53:00Z</time>
      </trkpt>
      <trkpt lat="48.55908" lon="-3.11279">
        <ele>124</ele>
        <time>2024-06-03T17:53:03Z</time>
      </trkpt>
      <trkpt lat="48.55887" lon="-3.11107">
        <ele>123</ele>
        <time>2024-06-03T17:53:30Z</time>
      </trkpt>
      <trkpt lat="48.55861" lon="-3.1111">
        <ele>122</ele>
        <time>2024-06-03T17:53:36Z</time>
      </trkpt>
      <trkpt lat="48.55866" lon="-3.11153">
        <ele>122</ele>
        <time>2024-06-03T17:53:43Z</time>
      </trkpt>
      <trkpt lat="48.55829" lon="-3.11151">
        <ele>120</ele>
        <time>2024-06-03T17:53:52Z</time>
      </trkpt>
      <trkpt lat="48.55794" lon="-3.11138">
        <ele>119</ele>
        <time>2024-06-03T17:54:00Z</time>
      </trkpt>
      <trkpt lat="48.5579" lon="-3.11153">
        <ele>119</ele>
        <time>2024-06-03T17:54:03Z</time>
      </trkpt>
      <trkpt lat="48.55746" lon="-3.1114">
        <ele>118</ele>
        <time>2024-06-03T17:54:13Z</time>
      </trkpt>
      <trkpt lat="48.55679" lon="-3.11105">
        <ele>119</ele>
        <time>2024-06-03T17:54:30Z</time>
      </trkpt>
      <trkpt lat="48.55637" lon="-3.1108">
        <ele>119</ele>
        <time>2024-06-03T17:54:40Z</time>
      </trkpt>
      <trkpt lat="48.55618" lon="-3.11072">
        <ele>118</ele>
        <time>2024-06-03T17:54:45Z</time>
      </trkpt>
      <trkpt lat="48.55602" lon="-3.11052">
        <ele>119</ele>
        <time>2024-06-03T17:54:50Z</time>
      </trkpt>
      <trkpt lat="48.55592" lon="-3.10995">
        <ele>119</ele>
        <time>2024-06-03T17:54:59Z</time>
      </trkpt>
      <trkpt lat="48.55612" lon="-3.10901">
        <ele>121</ele>
        <time>2024-06-03T17:55:14Z</time>
      </trkpt>
      <trkpt lat="48.5562" lon="-3.10876">
        <ele>121</ele>
        <time>2024-06-03T17:55:18Z</time>
      </trkpt>
      <trkpt lat="48.55615" lon="-3.10858">
        <ele>121</ele>
        <time>2024-06-03T17:55:21Z</time>
      </trkpt>
      <trkpt lat="48.55618" lon="-3.10808">
        <ele>120</ele>
        <time>2024-06-03T17:55:29Z</time>
      </trkpt>
      <trkpt lat="48.55617" lon="-3.10717">
        <ele>120</ele>
        <time>2024-06-03T17:55:43Z</time>
      </trkpt>
      <trkpt lat="48.55619" lon="-3.10653">
        <ele>120</ele>
        <time>2024-06-03T17:55:53Z</time>
      </trkpt>
      <trkpt lat="48.55608" lon="-3.10554">
        <ele>121</ele>
        <time>2024-06-03T17:56:09Z</time>
      </trkpt>
      <trkpt lat="48.5561" lon="-3.10478">
        <ele>121</ele>
        <time>2024-06-03T17:56:20Z</time>
      </trkpt>
      <trkpt lat="48.5562" lon="-3.10447">
        <ele>121</ele>
        <time>2024-06-03T17:56:26Z</time>
      </trkpt>
      <trkpt lat="48.55646" lon="-3.10394">
        <ele>120</ele>
        <time>2024-06-03T17:56:36Z</time>
      </trkpt>
      <trkpt lat="48.55665" lon="-3.10328">
        <ele>119</ele>
        <time>2024-06-03T17:56:47Z</time>
      </trkpt>
      <trkpt lat="48.55698" lon="-3.10168">
        <ele>116</ele>
        <time>2024-06-03T17:57:13Z</time>
      </trkpt>
      <trkpt lat="48.55707" lon="-3.10112">
        <ele>115</ele>
        <time>2024-06-03T17:57:22Z</time>
      </trkpt>
      <trkpt lat="48.5572" lon="-3.0998">
        <ele>113</ele>
        <time>2024-06-03T17:57:42Z</time>
      </trkpt>
      <trkpt lat="48.55714" lon="-3.09969">
        <ele>113</ele>
        <time>2024-06-03T17:57:45Z</time>
      </trkpt>
      <trkpt lat="48.55626" lon="-3.09905">
        <ele>114</ele>
        <time>2024-06-03T17:58:07Z</time>
      </trkpt>
      <trkpt lat="48.55562" lon="-3.09899">
        <ele>114</ele>
        <time>2024-06-03T17:58:22Z</time>
      </trkpt>
      <trkpt lat="48.55455" lon="-3.09838">
        <ele>114</ele>
        <time>2024-06-03T17:58:49Z</time>
      </trkpt>
      <trkpt lat="48.55436" lon="-3.09831">
        <ele>115</ele>
        <time>2024-06-03T17:58:54Z</time>
      </trkpt>
      <trkpt lat="48.55424" lon="-3.09848">
        <ele>115</ele>
        <time>2024-06-03T17:58:58Z</time>
      </trkpt>
      <trkpt lat="48.55412" lon="-3.09791">
        <ele>115</ele>
        <time>2024-06-03T17:59:07Z</time>
      </trkpt>
      <trkpt lat="48.55491" lon="-3.09785">
        <ele>113</ele>
        <time>2024-06-03T17:59:25Z</time>
      </trkpt>
      <trkpt lat="48.5553" lon="-3.09771">
        <ele>112</ele>
        <time>2024-06-03T17:59:35Z</time>
      </trkpt>
      <trkpt lat="48.556" lon="-3.09729">
        <ele>111</ele>
        <time>2024-06-03T17:59:52Z</time>
      </trkpt>
      <trkpt lat="48.55618" lon="-3.09662">
        <ele>110</ele>
        <time>2024-06-03T18:00:03Z</time>
      </trkpt>
      <trkpt lat="48.55615" lon="-3.09644">
        <ele>110</ele>
        <time>2024-06-03T18:00:06Z</time>
      </trkpt>
      <trkpt lat="48.55589" lon="-3.09582">
        <ele>110</ele>
        <time>2024-06-03T18:00:18Z</time>
      </trkpt>
      <trkpt lat="48.55558" lon="-3.09546">
        <ele>112</ele>
        <time>2024-06-03T18:00:27Z</time>
      </trkpt>
      <trkpt lat="48.55543" lon="-3.09521">
        <ele>113</ele>
        <time>2024-06-03T18:00:32Z</time>
      </trkpt>
      <trkpt lat="48.55515" lon="-3.09461">
        <ele>114</ele>
        <time>2024-06-03T18:00:43Z</time>
      </trkpt>
      <trkpt lat="48.55498" lon="-3.09445">
        <ele>114</ele>
        <time>2024-06-03T18:00:48Z</time>
      </trkpt>
      <trkpt lat="48.5546" lon="-3.09444">
        <ele>116</ele>
        <time>2024-06-03T18:00:57Z</time>
      </trkpt>
      <trkpt lat="48.55442" lon="-3.09453">
        <ele>116</ele>
        <time>2024-06-03T18:01:01Z</time>
      </trkpt>
      <trkpt lat="48.55437" lon="-3.09407">
        <ele>116</ele>
        <time>2024-06-03T18:01:08Z</time>
      </trkpt>
      <trkpt lat="48.55427" lon="-3.09379">
        <ele>117</ele>
        <time>2024-06-03T18:01:13Z</time>
      </trkpt>
      <trkpt lat="48.55408" lon="-3.09308">
        <ele>117</ele>
        <time>2024-06-03T18:01:25Z</time>
      </trkpt>
      <trkpt lat="48.55404" lon="-3.09283">
        <ele>118</ele>
        <time>2024-06-03T18:01:29Z</time>
      </trkpt>
      <trkpt lat="48.55384" lon="-3.09248">
        <ele>118</ele>
        <time>2024-06-03T18:01:36Z</time>
      </trkpt>
      <trkpt lat="48.55379" lon="-3.09219">
        <ele>118</ele>
        <time>2024-06-03T18:01:41Z</time>
      </trkpt>
      <trkpt lat="48.55391" lon="-3.09194">
        <ele>117</ele>
        <time>2024-06-03T18:01:46Z</time>
      </trkpt>
      <trkpt lat="48.5541" lon="-3.09172">
        <ele>116</ele>
        <time>2024-06-03T18:01:51Z</time>
      </trkpt>
      <trkpt lat="48.55447" lon="-3.09193">
        <ele>116</ele>
        <time>2024-06-03T18:02:01Z</time>
      </trkpt>
      <trkpt lat="48.55486" lon="-3.09209">
        <ele>116</ele>
        <time>2024-06-03T18:02:10Z</time>
      </trkpt>
      <trkpt lat="48.55509" lon="-3.092">
        <ele>116</ele>
        <time>2024-06-03T18:02:16Z</time>
      </trkpt>
      <trkpt lat="48.55519" lon="-3.09147">
        <ele>116</ele>
        <time>2024-06-03T18:02:24Z</time>
      </trkpt>
      <trkpt lat="48.55509" lon="-3.09096">
        <ele>115</ele>
        <time>2024-06-03T18:02:32Z</time>
      </trkpt>
      <trkpt lat="48.55498" lon="-3.09072">
        <ele>115</ele>
        <time>2024-06-03T18:02:37Z</time>
      </trkpt>
      <trkpt lat="48.55498" lon="-3.09063">
        <ele>115</ele>
        <time>2024-06-03T18:02:38Z</time>
      </trkpt>
      <trkpt lat="48.55536" lon="-3.0902">
        <ele>115</ele>
        <time>2024-06-03T18:02:49Z</time>
      </trkpt>
      <trkpt lat="48.55569" lon="-3.08993">
        <ele>116</ele>
        <time>2024-06-03T18:02:58Z</time>
      </trkpt>
      <trkpt lat="48.55585" lon="-3.08976">
        <ele>116</ele>
        <time>2024-06-03T18:03:03Z</time>
      </trkpt>
      <trkpt lat="48.55601" lon="-3.08946">
        <ele>117</ele>
        <time>2024-06-03T18:03:09Z</time>
      </trkpt>
      <trkpt lat="48.55612" lon="-3.08873">
        <ele>119</ele>
        <time>2024-06-03T18:03:20Z</time>
      </trkpt>
      <trkpt lat="48.55618" lon="-3.08695">
        <ele>120</ele>
        <time>2024-06-03T18:03:48Z</time>
      </trkpt>
      <trkpt lat="48.55628" lon="-3.08683">
        <ele>120</ele>
        <time>2024-06-03T18:03:51Z</time>
      </trkpt>
      <trkpt lat="48.5568" lon="-3.08681">
        <ele>121</ele>
        <time>2024-06-03T18:04:03Z</time>
      </trkpt>
      <trkpt lat="48.55728" lon="-3.08695">
        <ele>123</ele>
        <time>2024-06-03T18:04:14Z</time>
      </trkpt>
      <trkpt lat="48.55771" lon="-3.08718">
        <ele>124</ele>
        <time>2024-06-03T18:04:25Z</time>
      </trkpt>
      <trkpt lat="48.55785" lon="-3.08728">
        <ele>124</ele>
        <time>2024-06-03T18:04:29Z</time>
      </trkpt>
      <trkpt lat="48.55798" lon="-3.08744">
        <ele>125</ele>
        <time>2024-06-03T18:04:32Z</time>
      </trkpt>
      <trkpt lat="48.55817" lon="-3.08752">
        <ele>126</ele>
        <time>2024-06-03T18:04:37Z</time>
      </trkpt>
      <trkpt lat="48.55832" lon="-3.08752">
        <ele>127</ele>
        <time>2024-06-03T18:04:41Z</time>
      </trkpt>
      <trkpt lat="48.55863" lon="-3.08769">
        <ele>127</ele>
        <time>2024-06-03T18:04:48Z</time>
      </trkpt>
      <trkpt lat="48.55882" lon="-3.08776">
        <ele>127</ele>
        <time>2024-06-03T18:04:53Z</time>
      </trkpt>
      <trkpt lat="48.55899" lon="-3.08787">
        <ele>127</ele>
        <time>2024-06-03T18:04:57Z</time>
      </trkpt>
      <trkpt lat="48.55935" lon="-3.08823">
        <ele>127</ele>
        <time>2024-06-03T18:05:07Z</time>
      </trkpt>
      <trkpt lat="48.55958" lon="-3.08833">
        <ele>127</ele>
        <time>2024-06-03T18:05:13Z</time>
      </trkpt>
      <trkpt lat="48.55996" lon="-3.08804">
        <ele>128</ele>
        <time>2024-06-03T18:05:23Z</time>
      </trkpt>
      <trkpt lat="48.56046" lon="-3.08856">
        <ele>126</ele>
        <time>2024-06-03T18:05:37Z</time>
      </trkpt>
      <trkpt lat="48.56063" lon="-3.0887">
        <ele>126</ele>
        <time>2024-06-03T18:05:41Z</time>
      </trkpt>
      <trkpt lat="48.56073" lon="-3.08834">
        <ele>126</ele>
        <time>2024-06-03T18:05:47Z</time>
      </trkpt>
      <trkpt lat="48.56141" lon="-3.08839">
        <ele>127</ele>
        <time>2024-06-03T18:06:03Z</time>
      </trkpt>
      <trkpt lat="48.56171" lon="-3.08845">
        <ele>128</ele>
        <time>2024-06-03T18:06:10Z</time>
      </trkpt>
      <trkpt lat="48.56266" lon="-3.08928">
        <ele>128</ele>
        <time>2024-06-03T18:06:36Z</time>
      </trkpt>
      <trkpt lat="48.56316" lon="-3.08931">
        <ele>130</ele>
        <time>2024-06-03T18:06:48Z</time>
      </trkpt>
      <trkpt lat="48.56328" lon="-3.08938">
        <ele>131</ele>
        <time>2024-06-03T18:06:51Z</time>
      </trkpt>
      <trkpt lat="48.56311" lon="-3.08974">
        <ele>130</ele>
        <time>2024-06-03T18:06:58Z</time>
      </trkpt>
      <trkpt lat="48.56284" lon="-3.09011">
        <ele>128</ele>
        <time>2024-06-03T18:07:06Z</time>
      </trkpt>
      <trkpt lat="48.5624" lon="-3.09093">
        <ele>124</ele>
        <time>2024-06-03T18:07:22Z</time>
      </trkpt>
      <trkpt lat="48.56181" lon="-3.09239">
        <ele>123</ele>
        <time>2024-06-03T18:07:49Z</time>
      </trkpt>
      <trkpt lat="48.56163" lon="-3.09275">
        <ele>122</ele>
        <time>2024-06-03T18:07:56Z</time>
      </trkpt>
      <trkpt lat="48.56056" lon="-3.09533">
        <ele>114</ele>
        <time>2024-06-03T18:08:43Z</time>
      </trkpt>
      <trkpt lat="48.55945" lon="-3.09789">
        <ele>110</ele>
        <time>2024-06-03T18:09:30Z</time>
      </trkpt>
      <trkpt lat="48.55859" lon="-3.09995">
        <ele>111</ele>
        <time>2024-06-03T18:10:08Z</time>
      </trkpt>
      <trkpt lat="48.55841" lon="-3.10048">
        <ele>112</ele>
        <time>2024-06-03T18:10:17Z</time>
      </trkpt>
      <trkpt lat="48.55827" lon="-3.10072">
        <ele>113</ele>
        <time>2024-06-03T18:10:22Z</time>
      </trkpt>
      <trkpt lat="48.55798" lon="-3.10146">
        <ele>114</ele>
        <time>2024-06-03T18:10:35Z</time>
      </trkpt>
      <trkpt lat="48.55784" lon="-3.10203">
        <ele>115</ele>
        <time>2024-06-03T18:10:45Z</time>
      </trkpt>
      <trkpt lat="48.55776" lon="-3.10251">
        <ele>117</ele>
        <time>2024-06-03T18:10:52Z</time>
      </trkpt>
      <trkpt lat="48.55774" lon="-3.10278">
        <ele>117</ele>
        <time>2024-06-03T18:10:57Z</time>
      </trkpt>
      <trkpt lat="48.55779" lon="-3.10416">
        <ele>119</ele>
        <time>2024-06-03T18:11:18Z</time>
      </trkpt>
      <trkpt lat="48.55777" lon="-3.10431">
        <ele>119</ele>
        <time>2024-06-03T18:11:20Z</time>
      </trkpt>
      <trkpt lat="48.5577" lon="-3.10445">
        <ele>119</ele>
        <time>2024-06-03T18:11:23Z</time>
      </trkpt>
      <trkpt lat="48.55763" lon="-3.10451">
        <ele>120</ele>
        <time>2024-06-03T18:11:25Z</time>
      </trkpt>
    </trkseg>
  </trk>
</gpx>